<?xml version="1.0" encoding="UTF-8" standalone="no" ?>
<gpx xmlns="http://www.topografix.com/GPX/1/1" xmlns:xsi="http://www.w3.org/2001/XMLSchema-instance" xsi:schemaLocation="http://www.topografix.com/GPX/1/1 http://www.topografix.com/GPX/1/1/gpx.xsd" version="1.1" creator="VisuGPX - https://www.visugpx.com">
  <metadata>
    <name>14933710-VTT 60 km 2022</name>
    <desc><![CDATA[Rando VTT 2022 THORMONTBOU
Parcourt 60 km]]></desc>
  </metadata>
  <wpt lat="47.11559" lon="5.97401">
    <ele>395.1</ele>
    <name><![CDATA[Pit stop (refreshments]]></name>
    <desc><![CDATA[]]></desc>
  </wpt>
  <wpt lat="47.14761" lon="5.97435">
    <ele>401.3</ele>
    <name><![CDATA[Pit stop (refreshments]]></name>
    <desc><![CDATA[]]></desc>
  </wpt>
  <wpt lat="47.09987" lon="6.02803">
    <ele>409.7</ele>
    <name><![CDATA[Ravitaillement]]></name>
    <desc><![CDATA[]]></desc>
  </wpt>
  <trk>
    <name><![CDATA[14933710-VTT 60 km 2022]]></name>
    <trkseg>
      <trkpt lat="47.1637" lon="5.90315">
        <ele>299</ele>
        <time>2022-06-18T12:16:50Z</time>
      </trkpt>
      <trkpt lat="47.16366" lon="5.90321">
        <ele>300</ele>
        <time>2022-06-18T12:16:51Z</time>
      </trkpt>
      <trkpt lat="47.16365" lon="5.90312">
        <ele>299</ele>
        <time>2022-06-18T12:16:53Z</time>
      </trkpt>
      <trkpt lat="47.16363" lon="5.90314">
        <ele>299</ele>
        <time>2022-06-18T12:16:53Z</time>
      </trkpt>
      <trkpt lat="47.16378" lon="5.90324">
        <ele>300</ele>
        <time>2022-06-18T12:16:57Z</time>
      </trkpt>
      <trkpt lat="47.16451" lon="5.90397">
        <ele>296</ele>
        <time>2022-06-18T12:17:18Z</time>
      </trkpt>
      <trkpt lat="47.16483" lon="5.90432">
        <ele>297</ele>
        <time>2022-06-18T12:17:27Z</time>
      </trkpt>
      <trkpt lat="47.16492" lon="5.9045">
        <ele>298</ele>
        <time>2022-06-18T12:17:31Z</time>
      </trkpt>
      <trkpt lat="47.16514" lon="5.90542">
        <ele>305</ele>
        <time>2022-06-18T12:17:46Z</time>
      </trkpt>
      <trkpt lat="47.16516" lon="5.9068">
        <ele>319</ele>
        <time>2022-06-18T12:18:08Z</time>
      </trkpt>
      <trkpt lat="47.16535" lon="5.907">
        <ele>321</ele>
        <time>2022-06-18T12:18:14Z</time>
      </trkpt>
      <trkpt lat="47.16552" lon="5.9073">
        <ele>325</ele>
        <time>2022-06-18T12:18:20Z</time>
      </trkpt>
      <trkpt lat="47.16569" lon="5.90774">
        <ele>330</ele>
        <time>2022-06-18T12:18:28Z</time>
      </trkpt>
      <trkpt lat="47.16567" lon="5.90788">
        <ele>331</ele>
        <time>2022-06-18T12:18:30Z</time>
      </trkpt>
      <trkpt lat="47.1655" lon="5.90822">
        <ele>335</ele>
        <time>2022-06-18T12:18:37Z</time>
      </trkpt>
      <trkpt lat="47.1655" lon="5.90904">
        <ele>345</ele>
        <time>2022-06-18T12:18:50Z</time>
      </trkpt>
      <trkpt lat="47.16545" lon="5.90917">
        <ele>346</ele>
        <time>2022-06-18T12:18:52Z</time>
      </trkpt>
      <trkpt lat="47.16523" lon="5.90946">
        <ele>349</ele>
        <time>2022-06-18T12:18:59Z</time>
      </trkpt>
      <trkpt lat="47.16524" lon="5.90958">
        <ele>351</ele>
        <time>2022-06-18T12:19:01Z</time>
      </trkpt>
      <trkpt lat="47.16545" lon="5.90978">
        <ele>354</ele>
        <time>2022-06-18T12:19:07Z</time>
      </trkpt>
      <trkpt lat="47.16573" lon="5.91016">
        <ele>360</ele>
        <time>2022-06-18T12:19:16Z</time>
      </trkpt>
      <trkpt lat="47.16625" lon="5.91073">
        <ele>368</ele>
        <time>2022-06-18T12:19:31Z</time>
      </trkpt>
      <trkpt lat="47.16652" lon="5.91141">
        <ele>375</ele>
        <time>2022-06-18T12:19:43Z</time>
      </trkpt>
      <trkpt lat="47.16677" lon="5.9118">
        <ele>376</ele>
        <time>2022-06-18T12:19:52Z</time>
      </trkpt>
      <trkpt lat="47.16688" lon="5.91226">
        <ele>374</ele>
        <time>2022-06-18T12:20:00Z</time>
      </trkpt>
      <trkpt lat="47.16686" lon="5.91252">
        <ele>374</ele>
        <time>2022-06-18T12:20:04Z</time>
      </trkpt>
      <trkpt lat="47.16675" lon="5.91287">
        <ele>372</ele>
        <time>2022-06-18T12:20:10Z</time>
      </trkpt>
      <trkpt lat="47.16663" lon="5.91303">
        <ele>374</ele>
        <time>2022-06-18T12:20:14Z</time>
      </trkpt>
      <trkpt lat="47.16634" lon="5.91323">
        <ele>379</ele>
        <time>2022-06-18T12:20:21Z</time>
      </trkpt>
      <trkpt lat="47.1663" lon="5.91354">
        <ele>373</ele>
        <time>2022-06-18T12:20:26Z</time>
      </trkpt>
      <trkpt lat="47.16623" lon="5.91363">
        <ele>373</ele>
        <time>2022-06-18T12:20:28Z</time>
      </trkpt>
      <trkpt lat="47.1659" lon="5.91384">
        <ele>383</ele>
        <time>2022-06-18T12:20:37Z</time>
      </trkpt>
      <trkpt lat="47.16558" lon="5.91412">
        <ele>388</ele>
        <time>2022-06-18T12:20:45Z</time>
      </trkpt>
      <trkpt lat="47.16533" lon="5.91445">
        <ele>388</ele>
        <time>2022-06-18T12:20:53Z</time>
      </trkpt>
      <trkpt lat="47.16528" lon="5.91473">
        <ele>386</ele>
        <time>2022-06-18T12:20:58Z</time>
      </trkpt>
      <trkpt lat="47.16526" lon="5.91531">
        <ele>381</ele>
        <time>2022-06-18T12:21:07Z</time>
      </trkpt>
      <trkpt lat="47.1649" lon="5.91666">
        <ele>387</ele>
        <time>2022-06-18T12:21:30Z</time>
      </trkpt>
      <trkpt lat="47.16484" lon="5.91733">
        <ele>381</ele>
        <time>2022-06-18T12:21:41Z</time>
      </trkpt>
      <trkpt lat="47.16468" lon="5.91814">
        <ele>374</ele>
        <time>2022-06-18T12:21:54Z</time>
      </trkpt>
      <trkpt lat="47.16473" lon="5.91947">
        <ele>351</ele>
        <time>2022-06-18T12:22:15Z</time>
      </trkpt>
      <trkpt lat="47.1647" lon="5.91917">
        <ele>355</ele>
        <time>2022-06-18T12:22:20Z</time>
      </trkpt>
      <trkpt lat="47.16477" lon="5.91878">
        <ele>359</ele>
        <time>2022-06-18T12:22:27Z</time>
      </trkpt>
      <trkpt lat="47.16488" lon="5.91846">
        <ele>359</ele>
        <time>2022-06-18T12:22:32Z</time>
      </trkpt>
      <trkpt lat="47.16513" lon="5.91804">
        <ele>355</ele>
        <time>2022-06-18T12:22:41Z</time>
      </trkpt>
      <trkpt lat="47.16533" lon="5.91747">
        <ele>354</ele>
        <time>2022-06-18T12:22:51Z</time>
      </trkpt>
      <trkpt lat="47.16546" lon="5.91745">
        <ele>347</ele>
        <time>2022-06-18T12:22:54Z</time>
      </trkpt>
      <trkpt lat="47.16552" lon="5.91763">
        <ele>340</ele>
        <time>2022-06-18T12:22:58Z</time>
      </trkpt>
      <trkpt lat="47.16535" lon="5.91895">
        <ele>331</ele>
        <time>2022-06-18T12:23:19Z</time>
      </trkpt>
      <trkpt lat="47.16535" lon="5.91935">
        <ele>327</ele>
        <time>2022-06-18T12:23:25Z</time>
      </trkpt>
      <trkpt lat="47.16546" lon="5.92029">
        <ele>314</ele>
        <time>2022-06-18T12:23:40Z</time>
      </trkpt>
      <trkpt lat="47.16555" lon="5.91949">
        <ele>316</ele>
        <time>2022-06-18T12:23:53Z</time>
      </trkpt>
      <trkpt lat="47.16562" lon="5.9193">
        <ele>314</ele>
        <time>2022-06-18T12:23:57Z</time>
      </trkpt>
      <trkpt lat="47.16575" lon="5.91911">
        <ele>310</ele>
        <time>2022-06-18T12:24:01Z</time>
      </trkpt>
      <trkpt lat="47.16605" lon="5.91889">
        <ele>302</ele>
        <time>2022-06-18T12:24:09Z</time>
      </trkpt>
      <trkpt lat="47.16631" lon="5.91895">
        <ele>294</ele>
        <time>2022-06-18T12:24:15Z</time>
      </trkpt>
      <trkpt lat="47.16659" lon="5.91885">
        <ele>287</ele>
        <time>2022-06-18T12:24:22Z</time>
      </trkpt>
      <trkpt lat="47.16701" lon="5.91857">
        <ele>279</ele>
        <time>2022-06-18T12:24:32Z</time>
      </trkpt>
      <trkpt lat="47.16703" lon="5.91837">
        <ele>280</ele>
        <time>2022-06-18T12:24:36Z</time>
      </trkpt>
      <trkpt lat="47.16696" lon="5.91749">
        <ele>284</ele>
        <time>2022-06-18T12:24:50Z</time>
      </trkpt>
      <trkpt lat="47.16685" lon="5.91692">
        <ele>286</ele>
        <time>2022-06-18T12:24:59Z</time>
      </trkpt>
      <trkpt lat="47.16706" lon="5.91616">
        <ele>275</ele>
        <time>2022-06-18T12:25:12Z</time>
      </trkpt>
      <trkpt lat="47.16727" lon="5.91574">
        <ele>267</ele>
        <time>2022-06-18T12:25:20Z</time>
      </trkpt>
      <trkpt lat="47.16793" lon="5.91487">
        <ele>252</ele>
        <time>2022-06-18T12:25:41Z</time>
      </trkpt>
      <trkpt lat="47.16819" lon="5.91427">
        <ele>248</ele>
        <time>2022-06-18T12:25:52Z</time>
      </trkpt>
      <trkpt lat="47.16857" lon="5.91385">
        <ele>245</ele>
        <time>2022-06-18T12:26:04Z</time>
      </trkpt>
      <trkpt lat="47.16879" lon="5.91369">
        <ele>242</ele>
        <time>2022-06-18T12:26:09Z</time>
      </trkpt>
      <trkpt lat="47.16904" lon="5.9136">
        <ele>237</ele>
        <time>2022-06-18T12:26:15Z</time>
      </trkpt>
      <trkpt lat="47.16927" lon="5.91365">
        <ele>234</ele>
        <time>2022-06-18T12:26:21Z</time>
      </trkpt>
      <trkpt lat="47.16936" lon="5.91377">
        <ele>232</ele>
        <time>2022-06-18T12:26:24Z</time>
      </trkpt>
      <trkpt lat="47.16961" lon="5.91442">
        <ele>229</ele>
        <time>2022-06-18T12:26:35Z</time>
      </trkpt>
      <trkpt lat="47.16985" lon="5.91491">
        <ele>227</ele>
        <time>2022-06-18T12:26:45Z</time>
      </trkpt>
      <trkpt lat="47.17006" lon="5.91551">
        <ele>226</ele>
        <time>2022-06-18T12:26:56Z</time>
      </trkpt>
      <trkpt lat="47.17056" lon="5.91747">
        <ele>227</ele>
        <time>2022-06-18T12:27:29Z</time>
      </trkpt>
      <trkpt lat="47.17062" lon="5.91855">
        <ele>227</ele>
        <time>2022-06-18T12:27:46Z</time>
      </trkpt>
      <trkpt lat="47.17059" lon="5.92051">
        <ele>228</ele>
        <time>2022-06-18T12:28:17Z</time>
      </trkpt>
      <trkpt lat="47.17068" lon="5.92266">
        <ele>228</ele>
        <time>2022-06-18T12:28:51Z</time>
      </trkpt>
      <trkpt lat="47.17092" lon="5.92586">
        <ele>226</ele>
        <time>2022-06-18T12:29:43Z</time>
      </trkpt>
      <trkpt lat="47.17028" lon="5.92644">
        <ele>229</ele>
        <time>2022-06-18T12:30:00Z</time>
      </trkpt>
      <trkpt lat="47.17013" lon="5.92712">
        <ele>231</ele>
        <time>2022-06-18T12:30:11Z</time>
      </trkpt>
      <trkpt lat="47.16971" lon="5.92753">
        <ele>233</ele>
        <time>2022-06-18T12:30:23Z</time>
      </trkpt>
      <trkpt lat="47.16924" lon="5.92818">
        <ele>237</ele>
        <time>2022-06-18T12:30:38Z</time>
      </trkpt>
      <trkpt lat="47.16914" lon="5.9282">
        <ele>238</ele>
        <time>2022-06-18T12:30:41Z</time>
      </trkpt>
      <trkpt lat="47.16888" lon="5.92794">
        <ele>241</ele>
        <time>2022-06-18T12:30:48Z</time>
      </trkpt>
      <trkpt lat="47.16868" lon="5.92781">
        <ele>243</ele>
        <time>2022-06-18T12:30:53Z</time>
      </trkpt>
      <trkpt lat="47.16842" lon="5.92772">
        <ele>245</ele>
        <time>2022-06-18T12:30:59Z</time>
      </trkpt>
      <trkpt lat="47.16798" lon="5.92785">
        <ele>248</ele>
        <time>2022-06-18T12:31:10Z</time>
      </trkpt>
      <trkpt lat="47.16767" lon="5.92813">
        <ele>249</ele>
        <time>2022-06-18T12:31:18Z</time>
      </trkpt>
      <trkpt lat="47.16754" lon="5.92831">
        <ele>249</ele>
        <time>2022-06-18T12:31:22Z</time>
      </trkpt>
      <trkpt lat="47.16744" lon="5.92869">
        <ele>250</ele>
        <time>2022-06-18T12:31:29Z</time>
      </trkpt>
      <trkpt lat="47.16745" lon="5.92916">
        <ele>251</ele>
        <time>2022-06-18T12:31:36Z</time>
      </trkpt>
      <trkpt lat="47.16756" lon="5.93">
        <ele>252</ele>
        <time>2022-06-18T12:31:50Z</time>
      </trkpt>
      <trkpt lat="47.16775" lon="5.93058">
        <ele>255</ele>
        <time>2022-06-18T12:32:00Z</time>
      </trkpt>
      <trkpt lat="47.16794" lon="5.93094">
        <ele>258</ele>
        <time>2022-06-18T12:32:07Z</time>
      </trkpt>
      <trkpt lat="47.16868" lon="5.93166">
        <ele>264</ele>
        <time>2022-06-18T12:32:28Z</time>
      </trkpt>
      <trkpt lat="47.16927" lon="5.93257">
        <ele>272</ele>
        <time>2022-06-18T12:32:48Z</time>
      </trkpt>
      <trkpt lat="47.16957" lon="5.93311">
        <ele>281</ele>
        <time>2022-06-18T12:32:59Z</time>
      </trkpt>
      <trkpt lat="47.16968" lon="5.93349">
        <ele>285</ele>
        <time>2022-06-18T12:33:06Z</time>
      </trkpt>
      <trkpt lat="47.16967" lon="5.93358">
        <ele>285</ele>
        <time>2022-06-18T12:33:07Z</time>
      </trkpt>
      <trkpt lat="47.16977" lon="5.93385">
        <ele>288</ele>
        <time>2022-06-18T12:33:12Z</time>
      </trkpt>
      <trkpt lat="47.16992" lon="5.93403">
        <ele>289</ele>
        <time>2022-06-18T12:33:17Z</time>
      </trkpt>
      <trkpt lat="47.17001" lon="5.93422">
        <ele>291</ele>
        <time>2022-06-18T12:33:20Z</time>
      </trkpt>
      <trkpt lat="47.17103" lon="5.93554">
        <ele>318</ele>
        <time>2022-06-18T12:33:52Z</time>
      </trkpt>
      <trkpt lat="47.17158" lon="5.93616">
        <ele>329</ele>
        <time>2022-06-18T12:34:08Z</time>
      </trkpt>
      <trkpt lat="47.17185" lon="5.93652">
        <ele>328</ele>
        <time>2022-06-18T12:34:17Z</time>
      </trkpt>
      <trkpt lat="47.17193" lon="5.93671">
        <ele>328</ele>
        <time>2022-06-18T12:34:20Z</time>
      </trkpt>
      <trkpt lat="47.17199" lon="5.93675">
        <ele>327</ele>
        <time>2022-06-18T12:34:22Z</time>
      </trkpt>
      <trkpt lat="47.172" lon="5.93683">
        <ele>327</ele>
        <time>2022-06-18T12:34:23Z</time>
      </trkpt>
      <trkpt lat="47.17194" lon="5.937">
        <ele>330</ele>
        <time>2022-06-18T12:34:26Z</time>
      </trkpt>
      <trkpt lat="47.17167" lon="5.9372">
        <ele>336</ele>
        <time>2022-06-18T12:34:33Z</time>
      </trkpt>
      <trkpt lat="47.17165" lon="5.93729">
        <ele>336</ele>
        <time>2022-06-18T12:34:35Z</time>
      </trkpt>
      <trkpt lat="47.17172" lon="5.93741">
        <ele>336</ele>
        <time>2022-06-18T12:34:37Z</time>
      </trkpt>
      <trkpt lat="47.17197" lon="5.93755">
        <ele>333</ele>
        <time>2022-06-18T12:34:43Z</time>
      </trkpt>
      <trkpt lat="47.17227" lon="5.93782">
        <ele>330</ele>
        <time>2022-06-18T12:34:52Z</time>
      </trkpt>
      <trkpt lat="47.17265" lon="5.93843">
        <ele>322</ele>
        <time>2022-06-18T12:35:05Z</time>
      </trkpt>
      <trkpt lat="47.17298" lon="5.93948">
        <ele>311</ele>
        <time>2022-06-18T12:35:23Z</time>
      </trkpt>
      <trkpt lat="47.17316" lon="5.94056">
        <ele>305</ele>
        <time>2022-06-18T12:35:41Z</time>
      </trkpt>
      <trkpt lat="47.17359" lon="5.94166">
        <ele>296</ele>
        <time>2022-06-18T12:36:01Z</time>
      </trkpt>
      <trkpt lat="47.17368" lon="5.9421">
        <ele>296</ele>
        <time>2022-06-18T12:36:08Z</time>
      </trkpt>
      <trkpt lat="47.1739" lon="5.94265">
        <ele>293</ele>
        <time>2022-06-18T12:36:18Z</time>
      </trkpt>
      <trkpt lat="47.1741" lon="5.94342">
        <ele>283</ele>
        <time>2022-06-18T12:36:31Z</time>
      </trkpt>
      <trkpt lat="47.17406" lon="5.94391">
        <ele>279</ele>
        <time>2022-06-18T12:36:39Z</time>
      </trkpt>
      <trkpt lat="47.17398" lon="5.94414">
        <ele>277</ele>
        <time>2022-06-18T12:36:43Z</time>
      </trkpt>
      <trkpt lat="47.17411" lon="5.94449">
        <ele>271</ele>
        <time>2022-06-18T12:36:50Z</time>
      </trkpt>
      <trkpt lat="47.1741" lon="5.94464">
        <ele>269</ele>
        <time>2022-06-18T12:36:52Z</time>
      </trkpt>
      <trkpt lat="47.17387" lon="5.94479">
        <ele>268</ele>
        <time>2022-06-18T12:36:58Z</time>
      </trkpt>
      <trkpt lat="47.1738" lon="5.94514">
        <ele>263</ele>
        <time>2022-06-18T12:37:04Z</time>
      </trkpt>
      <trkpt lat="47.17372" lon="5.94528">
        <ele>262</ele>
        <time>2022-06-18T12:37:07Z</time>
      </trkpt>
      <trkpt lat="47.17349" lon="5.94547">
        <ele>260</ele>
        <time>2022-06-18T12:37:13Z</time>
      </trkpt>
      <trkpt lat="47.17296" lon="5.94571">
        <ele>256</ele>
        <time>2022-06-18T12:37:26Z</time>
      </trkpt>
      <trkpt lat="47.17285" lon="5.94581">
        <ele>255</ele>
        <time>2022-06-18T12:37:29Z</time>
      </trkpt>
      <trkpt lat="47.1726" lon="5.94637">
        <ele>256</ele>
        <time>2022-06-18T12:37:39Z</time>
      </trkpt>
      <trkpt lat="47.17238" lon="5.94668">
        <ele>259</ele>
        <time>2022-06-18T12:37:47Z</time>
      </trkpt>
      <trkpt lat="47.17229" lon="5.94674">
        <ele>261</ele>
        <time>2022-06-18T12:37:49Z</time>
      </trkpt>
      <trkpt lat="47.17201" lon="5.9467">
        <ele>266</ele>
        <time>2022-06-18T12:37:55Z</time>
      </trkpt>
      <trkpt lat="47.17143" lon="5.94639">
        <ele>272</ele>
        <time>2022-06-18T12:38:10Z</time>
      </trkpt>
      <trkpt lat="47.17108" lon="5.94627">
        <ele>277</ele>
        <time>2022-06-18T12:38:18Z</time>
      </trkpt>
      <trkpt lat="47.17054" lon="5.94627">
        <ele>285</ele>
        <time>2022-06-18T12:38:31Z</time>
      </trkpt>
      <trkpt lat="47.17033" lon="5.94631">
        <ele>288</ele>
        <time>2022-06-18T12:38:36Z</time>
      </trkpt>
      <trkpt lat="47.17021" lon="5.94638">
        <ele>290</ele>
        <time>2022-06-18T12:38:39Z</time>
      </trkpt>
      <trkpt lat="47.16994" lon="5.94666">
        <ele>294</ele>
        <time>2022-06-18T12:38:47Z</time>
      </trkpt>
      <trkpt lat="47.16979" lon="5.94688">
        <ele>296</ele>
        <time>2022-06-18T12:38:51Z</time>
      </trkpt>
      <trkpt lat="47.16927" lon="5.94782">
        <ele>302</ele>
        <time>2022-06-18T12:39:11Z</time>
      </trkpt>
      <trkpt lat="47.16908" lon="5.94825">
        <ele>304</ele>
        <time>2022-06-18T12:39:19Z</time>
      </trkpt>
      <trkpt lat="47.16892" lon="5.94843">
        <ele>304</ele>
        <time>2022-06-18T12:39:24Z</time>
      </trkpt>
      <trkpt lat="47.16885" lon="5.94845">
        <ele>304</ele>
        <time>2022-06-18T12:39:25Z</time>
      </trkpt>
      <trkpt lat="47.16856" lon="5.94821">
        <ele>304</ele>
        <time>2022-06-18T12:39:33Z</time>
      </trkpt>
      <trkpt lat="47.16825" lon="5.94851">
        <ele>303</ele>
        <time>2022-06-18T12:39:42Z</time>
      </trkpt>
      <trkpt lat="47.16779" lon="5.94882">
        <ele>300</ele>
        <time>2022-06-18T12:39:54Z</time>
      </trkpt>
      <trkpt lat="47.16766" lon="5.9488">
        <ele>299</ele>
        <time>2022-06-18T12:39:57Z</time>
      </trkpt>
      <trkpt lat="47.16756" lon="5.94872">
        <ele>299</ele>
        <time>2022-06-18T12:39:59Z</time>
      </trkpt>
      <trkpt lat="47.16747" lon="5.94877">
        <ele>299</ele>
        <time>2022-06-18T12:40:01Z</time>
      </trkpt>
      <trkpt lat="47.16686" lon="5.94968">
        <ele>303</ele>
        <time>2022-06-18T12:40:22Z</time>
      </trkpt>
      <trkpt lat="47.16616" lon="5.95092">
        <ele>318</ele>
        <time>2022-06-18T12:40:47Z</time>
      </trkpt>
      <trkpt lat="47.1656" lon="5.95174">
        <ele>333</ele>
        <time>2022-06-18T12:41:06Z</time>
      </trkpt>
      <trkpt lat="47.16547" lon="5.95199">
        <ele>341</ele>
        <time>2022-06-18T12:41:11Z</time>
      </trkpt>
      <trkpt lat="47.16541" lon="5.95243">
        <ele>353</ele>
        <time>2022-06-18T12:41:18Z</time>
      </trkpt>
      <trkpt lat="47.16549" lon="5.95304">
        <ele>364</ele>
        <time>2022-06-18T12:41:28Z</time>
      </trkpt>
      <trkpt lat="47.16564" lon="5.95349">
        <ele>368</ele>
        <time>2022-06-18T12:41:36Z</time>
      </trkpt>
      <trkpt lat="47.16602" lon="5.95436">
        <ele>368</ele>
        <time>2022-06-18T12:41:52Z</time>
      </trkpt>
      <trkpt lat="47.16627" lon="5.95517">
        <ele>371</ele>
        <time>2022-06-18T12:42:06Z</time>
      </trkpt>
      <trkpt lat="47.16641" lon="5.95617">
        <ele>374</ele>
        <time>2022-06-18T12:42:22Z</time>
      </trkpt>
      <trkpt lat="47.16654" lon="5.95639">
        <ele>374</ele>
        <time>2022-06-18T12:42:27Z</time>
      </trkpt>
      <trkpt lat="47.16685" lon="5.95674">
        <ele>370</ele>
        <time>2022-06-18T12:42:36Z</time>
      </trkpt>
      <trkpt lat="47.16688" lon="5.95696">
        <ele>369</ele>
        <time>2022-06-18T12:42:40Z</time>
      </trkpt>
      <trkpt lat="47.16682" lon="5.9574">
        <ele>369</ele>
        <time>2022-06-18T12:42:47Z</time>
      </trkpt>
      <trkpt lat="47.16719" lon="5.95843">
        <ele>371</ele>
        <time>2022-06-18T12:43:05Z</time>
      </trkpt>
      <trkpt lat="47.16747" lon="5.95973">
        <ele>375</ele>
        <time>2022-06-18T12:43:27Z</time>
      </trkpt>
      <trkpt lat="47.1675" lon="5.96005">
        <ele>375</ele>
        <time>2022-06-18T12:43:32Z</time>
      </trkpt>
      <trkpt lat="47.16745" lon="5.96052">
        <ele>377</ele>
        <time>2022-06-18T12:43:40Z</time>
      </trkpt>
      <trkpt lat="47.16721" lon="5.96118">
        <ele>383</ele>
        <time>2022-06-18T12:43:52Z</time>
      </trkpt>
      <trkpt lat="47.16704" lon="5.9613">
        <ele>384</ele>
        <time>2022-06-18T12:43:56Z</time>
      </trkpt>
      <trkpt lat="47.16657" lon="5.96135">
        <ele>386</ele>
        <time>2022-06-18T12:44:07Z</time>
      </trkpt>
      <trkpt lat="47.16648" lon="5.96139">
        <ele>387</ele>
        <time>2022-06-18T12:44:09Z</time>
      </trkpt>
      <trkpt lat="47.16617" lon="5.96169">
        <ele>391</ele>
        <time>2022-06-18T12:44:18Z</time>
      </trkpt>
      <trkpt lat="47.16608" lon="5.9619">
        <ele>394</ele>
        <time>2022-06-18T12:44:22Z</time>
      </trkpt>
      <trkpt lat="47.1661" lon="5.96202">
        <ele>395</ele>
        <time>2022-06-18T12:44:24Z</time>
      </trkpt>
      <trkpt lat="47.16629" lon="5.96237">
        <ele>398</ele>
        <time>2022-06-18T12:44:31Z</time>
      </trkpt>
      <trkpt lat="47.16675" lon="5.96298">
        <ele>402</ele>
        <time>2022-06-18T12:44:45Z</time>
      </trkpt>
      <trkpt lat="47.16699" lon="5.96323">
        <ele>403</ele>
        <time>2022-06-18T12:44:52Z</time>
      </trkpt>
      <trkpt lat="47.16725" lon="5.96362">
        <ele>403</ele>
        <time>2022-06-18T12:45:01Z</time>
      </trkpt>
      <trkpt lat="47.16735" lon="5.96384">
        <ele>403</ele>
        <time>2022-06-18T12:45:05Z</time>
      </trkpt>
      <trkpt lat="47.16721" lon="5.96411">
        <ele>402</ele>
        <time>2022-06-18T12:45:11Z</time>
      </trkpt>
      <trkpt lat="47.16728" lon="5.96435">
        <ele>400</ele>
        <time>2022-06-18T12:45:15Z</time>
      </trkpt>
      <trkpt lat="47.16761" lon="5.96481">
        <ele>395</ele>
        <time>2022-06-18T12:45:25Z</time>
      </trkpt>
      <trkpt lat="47.16854" lon="5.96558">
        <ele>392</ele>
        <time>2022-06-18T12:45:50Z</time>
      </trkpt>
      <trkpt lat="47.16889" lon="5.96595">
        <ele>388</ele>
        <time>2022-06-18T12:46:00Z</time>
      </trkpt>
      <trkpt lat="47.16926" lon="5.96617">
        <ele>386</ele>
        <time>2022-06-18T12:46:10Z</time>
      </trkpt>
      <trkpt lat="47.16962" lon="5.96655">
        <ele>377</ele>
        <time>2022-06-18T12:46:20Z</time>
      </trkpt>
      <trkpt lat="47.16995" lon="5.96679">
        <ele>374</ele>
        <time>2022-06-18T12:46:29Z</time>
      </trkpt>
      <trkpt lat="47.17018" lon="5.9673">
        <ele>368</ele>
        <time>2022-06-18T12:46:38Z</time>
      </trkpt>
      <trkpt lat="47.17055" lon="5.96772">
        <ele>366</ele>
        <time>2022-06-18T12:46:49Z</time>
      </trkpt>
      <trkpt lat="47.17069" lon="5.96784">
        <ele>366</ele>
        <time>2022-06-18T12:46:53Z</time>
      </trkpt>
      <trkpt lat="47.17142" lon="5.96828">
        <ele>366</ele>
        <time>2022-06-18T12:47:11Z</time>
      </trkpt>
      <trkpt lat="47.17152" lon="5.96841">
        <ele>366</ele>
        <time>2022-06-18T12:47:14Z</time>
      </trkpt>
      <trkpt lat="47.17163" lon="5.96903">
        <ele>364</ele>
        <time>2022-06-18T12:47:25Z</time>
      </trkpt>
      <trkpt lat="47.17173" lon="5.96936">
        <ele>365</ele>
        <time>2022-06-18T12:47:30Z</time>
      </trkpt>
      <trkpt lat="47.17283" lon="5.97197">
        <ele>377</ele>
        <time>2022-06-18T12:48:19Z</time>
      </trkpt>
      <trkpt lat="47.17321" lon="5.97302">
        <ele>382</ele>
        <time>2022-06-18T12:48:38Z</time>
      </trkpt>
      <trkpt lat="47.17324" lon="5.97345">
        <ele>385</ele>
        <time>2022-06-18T12:48:45Z</time>
      </trkpt>
      <trkpt lat="47.17311" lon="5.97382">
        <ele>386</ele>
        <time>2022-06-18T12:48:52Z</time>
      </trkpt>
      <trkpt lat="47.17306" lon="5.97413">
        <ele>386</ele>
        <time>2022-06-18T12:48:57Z</time>
      </trkpt>
      <trkpt lat="47.17312" lon="5.97449">
        <ele>387</ele>
        <time>2022-06-18T12:49:02Z</time>
      </trkpt>
      <trkpt lat="47.17275" lon="5.9749">
        <ele>385</ele>
        <time>2022-06-18T12:49:13Z</time>
      </trkpt>
      <trkpt lat="47.17263" lon="5.97495">
        <ele>383</ele>
        <time>2022-06-18T12:49:16Z</time>
      </trkpt>
      <trkpt lat="47.17242" lon="5.97487">
        <ele>382</ele>
        <time>2022-06-18T12:49:21Z</time>
      </trkpt>
      <trkpt lat="47.17219" lon="5.97457">
        <ele>384</ele>
        <time>2022-06-18T12:49:28Z</time>
      </trkpt>
      <trkpt lat="47.17206" lon="5.9745">
        <ele>385</ele>
        <time>2022-06-18T12:49:32Z</time>
      </trkpt>
      <trkpt lat="47.17187" lon="5.97452">
        <ele>386</ele>
        <time>2022-06-18T12:49:36Z</time>
      </trkpt>
      <trkpt lat="47.17155" lon="5.97467">
        <ele>385</ele>
        <time>2022-06-18T12:49:44Z</time>
      </trkpt>
      <trkpt lat="47.17048" lon="5.97461">
        <ele>380</ele>
        <time>2022-06-18T12:50:09Z</time>
      </trkpt>
      <trkpt lat="47.16998" lon="5.97467">
        <ele>375</ele>
        <time>2022-06-18T12:50:21Z</time>
      </trkpt>
      <trkpt lat="47.16957" lon="5.97459">
        <ele>373</ele>
        <time>2022-06-18T12:50:30Z</time>
      </trkpt>
      <trkpt lat="47.16914" lon="5.97434">
        <ele>371</ele>
        <time>2022-06-18T12:50:41Z</time>
      </trkpt>
      <trkpt lat="47.16802" lon="5.97399">
        <ele>369</ele>
        <time>2022-06-18T12:51:08Z</time>
      </trkpt>
      <trkpt lat="47.16749" lon="5.97403">
        <ele>367</ele>
        <time>2022-06-18T12:51:20Z</time>
      </trkpt>
      <trkpt lat="47.16671" lon="5.97419">
        <ele>358</ele>
        <time>2022-06-18T12:51:39Z</time>
      </trkpt>
      <trkpt lat="47.16623" lon="5.9741">
        <ele>354</ele>
        <time>2022-06-18T12:51:50Z</time>
      </trkpt>
      <trkpt lat="47.16589" lon="5.97409">
        <ele>351</ele>
        <time>2022-06-18T12:51:58Z</time>
      </trkpt>
      <trkpt lat="47.16526" lon="5.97388">
        <ele>346</ele>
        <time>2022-06-18T12:52:13Z</time>
      </trkpt>
      <trkpt lat="47.1651" lon="5.97388">
        <ele>345</ele>
        <time>2022-06-18T12:52:17Z</time>
      </trkpt>
      <trkpt lat="47.16475" lon="5.97371">
        <ele>344</ele>
        <time>2022-06-18T12:52:25Z</time>
      </trkpt>
      <trkpt lat="47.16439" lon="5.97337">
        <ele>342</ele>
        <time>2022-06-18T12:52:35Z</time>
      </trkpt>
      <trkpt lat="47.16422" lon="5.97312">
        <ele>341</ele>
        <time>2022-06-18T12:52:41Z</time>
      </trkpt>
      <trkpt lat="47.16414" lon="5.97307">
        <ele>340</ele>
        <time>2022-06-18T12:52:43Z</time>
      </trkpt>
      <trkpt lat="47.16388" lon="5.97312">
        <ele>338</ele>
        <time>2022-06-18T12:52:49Z</time>
      </trkpt>
      <trkpt lat="47.16351" lon="5.9731">
        <ele>335</ele>
        <time>2022-06-18T12:52:58Z</time>
      </trkpt>
      <trkpt lat="47.16297" lon="5.97322">
        <ele>334</ele>
        <time>2022-06-18T12:53:10Z</time>
      </trkpt>
      <trkpt lat="47.16248" lon="5.9732">
        <ele>334</ele>
        <time>2022-06-18T12:53:22Z</time>
      </trkpt>
      <trkpt lat="47.16216" lon="5.97323">
        <ele>337</ele>
        <time>2022-06-18T12:53:29Z</time>
      </trkpt>
      <trkpt lat="47.16135" lon="5.97308">
        <ele>340</ele>
        <time>2022-06-18T12:53:48Z</time>
      </trkpt>
      <trkpt lat="47.16033" lon="5.97252">
        <ele>339</ele>
        <time>2022-06-18T12:54:14Z</time>
      </trkpt>
      <trkpt lat="47.15993" lon="5.97219">
        <ele>340</ele>
        <time>2022-06-18T12:54:25Z</time>
      </trkpt>
      <trkpt lat="47.1594" lon="5.97191">
        <ele>347</ele>
        <time>2022-06-18T12:54:38Z</time>
      </trkpt>
      <trkpt lat="47.15926" lon="5.9718">
        <ele>349</ele>
        <time>2022-06-18T12:54:41Z</time>
      </trkpt>
      <trkpt lat="47.15926" lon="5.97175">
        <ele>349</ele>
        <time>2022-06-18T12:54:42Z</time>
      </trkpt>
      <trkpt lat="47.15897" lon="5.97177">
        <ele>352</ele>
        <time>2022-06-18T12:54:49Z</time>
      </trkpt>
      <trkpt lat="47.1584" lon="5.97164">
        <ele>355</ele>
        <time>2022-06-18T12:55:03Z</time>
      </trkpt>
      <trkpt lat="47.15828" lon="5.97181">
        <ele>358</ele>
        <time>2022-06-18T12:55:06Z</time>
      </trkpt>
      <trkpt lat="47.15815" lon="5.97225">
        <ele>364</ele>
        <time>2022-06-18T12:55:14Z</time>
      </trkpt>
      <trkpt lat="47.15815" lon="5.97243">
        <ele>365</ele>
        <time>2022-06-18T12:55:17Z</time>
      </trkpt>
      <trkpt lat="47.15821" lon="5.97299">
        <ele>372</ele>
        <time>2022-06-18T12:55:26Z</time>
      </trkpt>
      <trkpt lat="47.15852" lon="5.9734">
        <ele>375</ele>
        <time>2022-06-18T12:55:36Z</time>
      </trkpt>
      <trkpt lat="47.1587" lon="5.97407">
        <ele>385</ele>
        <time>2022-06-18T12:55:47Z</time>
      </trkpt>
      <trkpt lat="47.15873" lon="5.97493">
        <ele>398</ele>
        <time>2022-06-18T12:56:01Z</time>
      </trkpt>
      <trkpt lat="47.15859" lon="5.97534">
        <ele>400</ele>
        <time>2022-06-18T12:56:08Z</time>
      </trkpt>
      <trkpt lat="47.15849" lon="5.9754">
        <ele>400</ele>
        <time>2022-06-18T12:56:11Z</time>
      </trkpt>
      <trkpt lat="47.15818" lon="5.97543">
        <ele>401</ele>
        <time>2022-06-18T12:56:18Z</time>
      </trkpt>
      <trkpt lat="47.15764" lon="5.97541">
        <ele>403</ele>
        <time>2022-06-18T12:56:30Z</time>
      </trkpt>
      <trkpt lat="47.15714" lon="5.97522">
        <ele>406</ele>
        <time>2022-06-18T12:56:42Z</time>
      </trkpt>
      <trkpt lat="47.15692" lon="5.97498">
        <ele>411</ele>
        <time>2022-06-18T12:56:49Z</time>
      </trkpt>
      <trkpt lat="47.15675" lon="5.97488">
        <ele>411</ele>
        <time>2022-06-18T12:56:53Z</time>
      </trkpt>
      <trkpt lat="47.15624" lon="5.97441">
        <ele>413</ele>
        <time>2022-06-18T12:57:07Z</time>
      </trkpt>
      <trkpt lat="47.15597" lon="5.9743">
        <ele>416</ele>
        <time>2022-06-18T12:57:14Z</time>
      </trkpt>
      <trkpt lat="47.15552" lon="5.97393">
        <ele>421</ele>
        <time>2022-06-18T12:57:26Z</time>
      </trkpt>
      <trkpt lat="47.15518" lon="5.9738">
        <ele>422</ele>
        <time>2022-06-18T12:57:34Z</time>
      </trkpt>
      <trkpt lat="47.15502" lon="5.97365">
        <ele>423</ele>
        <time>2022-06-18T12:57:38Z</time>
      </trkpt>
      <trkpt lat="47.15492" lon="5.97361">
        <ele>423</ele>
        <time>2022-06-18T12:57:41Z</time>
      </trkpt>
      <trkpt lat="47.15468" lon="5.97355">
        <ele>421</ele>
        <time>2022-06-18T12:57:47Z</time>
      </trkpt>
      <trkpt lat="47.15436" lon="5.97368">
        <ele>418</ele>
        <time>2022-06-18T12:57:54Z</time>
      </trkpt>
      <trkpt lat="47.15413" lon="5.97367">
        <ele>416</ele>
        <time>2022-06-18T12:58:00Z</time>
      </trkpt>
      <trkpt lat="47.15357" lon="5.97378">
        <ele>408</ele>
        <time>2022-06-18T12:58:13Z</time>
      </trkpt>
      <trkpt lat="47.1531" lon="5.97356">
        <ele>405</ele>
        <time>2022-06-18T12:58:24Z</time>
      </trkpt>
      <trkpt lat="47.15278" lon="5.97318">
        <ele>403</ele>
        <time>2022-06-18T12:58:34Z</time>
      </trkpt>
      <trkpt lat="47.15239" lon="5.97304">
        <ele>401</ele>
        <time>2022-06-18T12:58:43Z</time>
      </trkpt>
      <trkpt lat="47.15221" lon="5.9731">
        <ele>401</ele>
        <time>2022-06-18T12:58:48Z</time>
      </trkpt>
      <trkpt lat="47.15198" lon="5.97325">
        <ele>400</ele>
        <time>2022-06-18T12:58:54Z</time>
      </trkpt>
      <trkpt lat="47.1518" lon="5.97345">
        <ele>399</ele>
        <time>2022-06-18T12:58:59Z</time>
      </trkpt>
      <trkpt lat="47.15123" lon="5.9745">
        <ele>395</ele>
        <time>2022-06-18T12:59:20Z</time>
      </trkpt>
      <trkpt lat="47.151" lon="5.97478">
        <ele>396</ele>
        <time>2022-06-18T12:59:27Z</time>
      </trkpt>
      <trkpt lat="47.15063" lon="5.9751">
        <ele>396</ele>
        <time>2022-06-18T12:59:37Z</time>
      </trkpt>
      <trkpt lat="47.15039" lon="5.97522">
        <ele>396</ele>
        <time>2022-06-18T12:59:43Z</time>
      </trkpt>
      <trkpt lat="47.15015" lon="5.97525">
        <ele>397</ele>
        <time>2022-06-18T12:59:49Z</time>
      </trkpt>
      <trkpt lat="47.14942" lon="5.97517">
        <ele>400</ele>
        <time>2022-06-18T13:00:06Z</time>
      </trkpt>
      <trkpt lat="47.14828" lon="5.9747">
        <ele>401</ele>
        <time>2022-06-18T13:00:33Z</time>
      </trkpt>
      <trkpt lat="47.14815" lon="5.97449">
        <ele>400</ele>
        <time>2022-06-18T13:00:38Z</time>
      </trkpt>
      <trkpt lat="47.14762" lon="5.9743">
        <ele>398</ele>
        <time>2022-06-18T13:00:51Z</time>
      </trkpt>
      <trkpt lat="47.14717" lon="5.97391">
        <ele>395</ele>
        <time>2022-06-18T13:01:03Z</time>
      </trkpt>
      <trkpt lat="47.14678" lon="5.9735">
        <ele>392</ele>
        <time>2022-06-18T13:01:14Z</time>
      </trkpt>
      <trkpt lat="47.14635" lon="5.9732">
        <ele>389</ele>
        <time>2022-06-18T13:01:25Z</time>
      </trkpt>
      <trkpt lat="47.14598" lon="5.97282">
        <ele>386</ele>
        <time>2022-06-18T13:01:36Z</time>
      </trkpt>
      <trkpt lat="47.14573" lon="5.9727">
        <ele>384</ele>
        <time>2022-06-18T13:01:42Z</time>
      </trkpt>
      <trkpt lat="47.1456" lon="5.97269">
        <ele>383</ele>
        <time>2022-06-18T13:01:45Z</time>
      </trkpt>
      <trkpt lat="47.14523" lon="5.97282">
        <ele>381</ele>
        <time>2022-06-18T13:01:54Z</time>
      </trkpt>
      <trkpt lat="47.1449" lon="5.97322">
        <ele>378</ele>
        <time>2022-06-18T13:02:04Z</time>
      </trkpt>
      <trkpt lat="47.14431" lon="5.97375">
        <ele>375</ele>
        <time>2022-06-18T13:02:20Z</time>
      </trkpt>
      <trkpt lat="47.14422" lon="5.97379">
        <ele>375</ele>
        <time>2022-06-18T13:02:22Z</time>
      </trkpt>
      <trkpt lat="47.14325" lon="5.97386">
        <ele>370</ele>
        <time>2022-06-18T13:02:45Z</time>
      </trkpt>
      <trkpt lat="47.14282" lon="5.97393">
        <ele>369</ele>
        <time>2022-06-18T13:02:55Z</time>
      </trkpt>
      <trkpt lat="47.14219" lon="5.97387">
        <ele>368</ele>
        <time>2022-06-18T13:03:10Z</time>
      </trkpt>
      <trkpt lat="47.14176" lon="5.97402">
        <ele>368</ele>
        <time>2022-06-18T13:03:20Z</time>
      </trkpt>
      <trkpt lat="47.1409" lon="5.97452">
        <ele>367</ele>
        <time>2022-06-18T13:03:42Z</time>
      </trkpt>
      <trkpt lat="47.14019" lon="5.97516">
        <ele>370</ele>
        <time>2022-06-18T13:04:01Z</time>
      </trkpt>
      <trkpt lat="47.13995" lon="5.97551">
        <ele>371</ele>
        <time>2022-06-18T13:04:09Z</time>
      </trkpt>
      <trkpt lat="47.13989" lon="5.97606">
        <ele>371</ele>
        <time>2022-06-18T13:04:18Z</time>
      </trkpt>
      <trkpt lat="47.14003" lon="5.97698">
        <ele>373</ele>
        <time>2022-06-18T13:04:33Z</time>
      </trkpt>
      <trkpt lat="47.13993" lon="5.97719">
        <ele>373</ele>
        <time>2022-06-18T13:04:37Z</time>
      </trkpt>
      <trkpt lat="47.13984" lon="5.97726">
        <ele>373</ele>
        <time>2022-06-18T13:04:39Z</time>
      </trkpt>
      <trkpt lat="47.13949" lon="5.97734">
        <ele>374</ele>
        <time>2022-06-18T13:04:47Z</time>
      </trkpt>
      <trkpt lat="47.1385" lon="5.97721">
        <ele>378</ele>
        <time>2022-06-18T13:05:11Z</time>
      </trkpt>
      <trkpt lat="47.13746" lon="5.97699">
        <ele>382</ele>
        <time>2022-06-18T13:05:35Z</time>
      </trkpt>
      <trkpt lat="47.13626" lon="5.97664">
        <ele>385</ele>
        <time>2022-06-18T13:06:04Z</time>
      </trkpt>
      <trkpt lat="47.13588" lon="5.97648">
        <ele>386</ele>
        <time>2022-06-18T13:06:13Z</time>
      </trkpt>
      <trkpt lat="47.13562" lon="5.97643">
        <ele>387</ele>
        <time>2022-06-18T13:06:19Z</time>
      </trkpt>
      <trkpt lat="47.13512" lon="5.97644">
        <ele>390</ele>
        <time>2022-06-18T13:06:31Z</time>
      </trkpt>
      <trkpt lat="47.13478" lon="5.97651">
        <ele>391</ele>
        <time>2022-06-18T13:06:39Z</time>
      </trkpt>
      <trkpt lat="47.1345" lon="5.97663">
        <ele>392</ele>
        <time>2022-06-18T13:06:46Z</time>
      </trkpt>
      <trkpt lat="47.13424" lon="5.97683">
        <ele>393</ele>
        <time>2022-06-18T13:06:52Z</time>
      </trkpt>
      <trkpt lat="47.13427" lon="5.97723">
        <ele>395</ele>
        <time>2022-06-18T13:06:59Z</time>
      </trkpt>
      <trkpt lat="47.13414" lon="5.9775">
        <ele>396</ele>
        <time>2022-06-18T13:07:04Z</time>
      </trkpt>
      <trkpt lat="47.13407" lon="5.97785">
        <ele>395</ele>
        <time>2022-06-18T13:07:10Z</time>
      </trkpt>
      <trkpt lat="47.13356" lon="5.97884">
        <ele>393</ele>
        <time>2022-06-18T13:07:30Z</time>
      </trkpt>
      <trkpt lat="47.13346" lon="5.97929">
        <ele>393</ele>
        <time>2022-06-18T13:07:37Z</time>
      </trkpt>
      <trkpt lat="47.13334" lon="5.97947">
        <ele>394</ele>
        <time>2022-06-18T13:07:41Z</time>
      </trkpt>
      <trkpt lat="47.13315" lon="5.97995">
        <ele>396</ele>
        <time>2022-06-18T13:07:50Z</time>
      </trkpt>
      <trkpt lat="47.13291" lon="5.98091">
        <ele>398</ele>
        <time>2022-06-18T13:08:06Z</time>
      </trkpt>
      <trkpt lat="47.13292" lon="5.98119">
        <ele>399</ele>
        <time>2022-06-18T13:08:11Z</time>
      </trkpt>
      <trkpt lat="47.13298" lon="5.98145">
        <ele>400</ele>
        <time>2022-06-18T13:08:15Z</time>
      </trkpt>
      <trkpt lat="47.13336" lon="5.98257">
        <ele>403</ele>
        <time>2022-06-18T13:08:35Z</time>
      </trkpt>
      <trkpt lat="47.13354" lon="5.98333">
        <ele>406</ele>
        <time>2022-06-18T13:08:48Z</time>
      </trkpt>
      <trkpt lat="47.13357" lon="5.98362">
        <ele>406</ele>
        <time>2022-06-18T13:08:52Z</time>
      </trkpt>
      <trkpt lat="47.13345" lon="5.98419">
        <ele>406</ele>
        <time>2022-06-18T13:09:02Z</time>
      </trkpt>
      <trkpt lat="47.13372" lon="5.98485">
        <ele>409</ele>
        <time>2022-06-18T13:09:14Z</time>
      </trkpt>
      <trkpt lat="47.13377" lon="5.98513">
        <ele>410</ele>
        <time>2022-06-18T13:09:19Z</time>
      </trkpt>
      <trkpt lat="47.13361" lon="5.98644">
        <ele>413</ele>
        <time>2022-06-18T13:09:40Z</time>
      </trkpt>
      <trkpt lat="47.1336" lon="5.98706">
        <ele>413</ele>
        <time>2022-06-18T13:09:50Z</time>
      </trkpt>
      <trkpt lat="47.13372" lon="5.98756">
        <ele>411</ele>
        <time>2022-06-18T13:09:58Z</time>
      </trkpt>
      <trkpt lat="47.13391" lon="5.98781">
        <ele>409</ele>
        <time>2022-06-18T13:10:04Z</time>
      </trkpt>
      <trkpt lat="47.13402" lon="5.9881">
        <ele>408</ele>
        <time>2022-06-18T13:10:09Z</time>
      </trkpt>
      <trkpt lat="47.13401" lon="5.98864">
        <ele>409</ele>
        <time>2022-06-18T13:10:18Z</time>
      </trkpt>
      <trkpt lat="47.13397" lon="5.9887">
        <ele>410</ele>
        <time>2022-06-18T13:10:19Z</time>
      </trkpt>
      <trkpt lat="47.13387" lon="5.98864">
        <ele>410</ele>
        <time>2022-06-18T13:10:22Z</time>
      </trkpt>
      <trkpt lat="47.13393" lon="5.98904">
        <ele>411</ele>
        <time>2022-06-18T13:10:28Z</time>
      </trkpt>
      <trkpt lat="47.13391" lon="5.98929">
        <ele>412</ele>
        <time>2022-06-18T13:10:32Z</time>
      </trkpt>
      <trkpt lat="47.13366" lon="5.98934">
        <ele>413</ele>
        <time>2022-06-18T13:10:38Z</time>
      </trkpt>
      <trkpt lat="47.13328" lon="5.98975">
        <ele>416</ele>
        <time>2022-06-18T13:10:49Z</time>
      </trkpt>
      <trkpt lat="47.13308" lon="5.98981">
        <ele>417</ele>
        <time>2022-06-18T13:10:54Z</time>
      </trkpt>
      <trkpt lat="47.13292" lon="5.99016">
        <ele>418</ele>
        <time>2022-06-18T13:11:01Z</time>
      </trkpt>
      <trkpt lat="47.13277" lon="5.99036">
        <ele>420</ele>
        <time>2022-06-18T13:11:05Z</time>
      </trkpt>
      <trkpt lat="47.13256" lon="5.9904">
        <ele>421</ele>
        <time>2022-06-18T13:11:10Z</time>
      </trkpt>
      <trkpt lat="47.13247" lon="5.99031">
        <ele>421</ele>
        <time>2022-06-18T13:11:13Z</time>
      </trkpt>
      <trkpt lat="47.13229" lon="5.98987">
        <ele>421</ele>
        <time>2022-06-18T13:11:21Z</time>
      </trkpt>
      <trkpt lat="47.132" lon="5.98952">
        <ele>423</ele>
        <time>2022-06-18T13:11:30Z</time>
      </trkpt>
      <trkpt lat="47.13194" lon="5.98938">
        <ele>423</ele>
        <time>2022-06-18T13:11:32Z</time>
      </trkpt>
      <trkpt lat="47.13195" lon="5.98927">
        <ele>423</ele>
        <time>2022-06-18T13:11:34Z</time>
      </trkpt>
      <trkpt lat="47.13209" lon="5.98899">
        <ele>421</ele>
        <time>2022-06-18T13:11:40Z</time>
      </trkpt>
      <trkpt lat="47.13212" lon="5.98881">
        <ele>421</ele>
        <time>2022-06-18T13:11:43Z</time>
      </trkpt>
      <trkpt lat="47.13209" lon="5.98858">
        <ele>420</ele>
        <time>2022-06-18T13:11:46Z</time>
      </trkpt>
      <trkpt lat="47.13203" lon="5.98854">
        <ele>420</ele>
        <time>2022-06-18T13:11:48Z</time>
      </trkpt>
      <trkpt lat="47.13194" lon="5.98856">
        <ele>420</ele>
        <time>2022-06-18T13:11:50Z</time>
      </trkpt>
      <trkpt lat="47.13173" lon="5.98875">
        <ele>421</ele>
        <time>2022-06-18T13:11:56Z</time>
      </trkpt>
      <trkpt lat="47.13153" lon="5.98869">
        <ele>422</ele>
        <time>2022-06-18T13:12:01Z</time>
      </trkpt>
      <trkpt lat="47.13135" lon="5.98887">
        <ele>424</ele>
        <time>2022-06-18T13:12:06Z</time>
      </trkpt>
      <trkpt lat="47.13097" lon="5.98908">
        <ele>428</ele>
        <time>2022-06-18T13:12:15Z</time>
      </trkpt>
      <trkpt lat="47.13087" lon="5.98919">
        <ele>429</ele>
        <time>2022-06-18T13:12:18Z</time>
      </trkpt>
      <trkpt lat="47.13064" lon="5.98929">
        <ele>430</ele>
        <time>2022-06-18T13:12:24Z</time>
      </trkpt>
      <trkpt lat="47.13012" lon="5.9899">
        <ele>434</ele>
        <time>2022-06-18T13:12:39Z</time>
      </trkpt>
      <trkpt lat="47.12997" lon="5.98994">
        <ele>435</ele>
        <time>2022-06-18T13:12:43Z</time>
      </trkpt>
      <trkpt lat="47.12971" lon="5.98986">
        <ele>434</ele>
        <time>2022-06-18T13:12:49Z</time>
      </trkpt>
      <trkpt lat="47.12947" lon="5.98996">
        <ele>434</ele>
        <time>2022-06-18T13:12:55Z</time>
      </trkpt>
      <trkpt lat="47.1292" lon="5.99051">
        <ele>434</ele>
        <time>2022-06-18T13:13:06Z</time>
      </trkpt>
      <trkpt lat="47.12903" lon="5.99077">
        <ele>435</ele>
        <time>2022-06-18T13:13:11Z</time>
      </trkpt>
      <trkpt lat="47.12889" lon="5.99083">
        <ele>436</ele>
        <time>2022-06-18T13:13:15Z</time>
      </trkpt>
      <trkpt lat="47.12851" lon="5.99068">
        <ele>437</ele>
        <time>2022-06-18T13:13:24Z</time>
      </trkpt>
      <trkpt lat="47.12843" lon="5.99077">
        <ele>438</ele>
        <time>2022-06-18T13:13:26Z</time>
      </trkpt>
      <trkpt lat="47.12823" lon="5.99082">
        <ele>439</ele>
        <time>2022-06-18T13:13:31Z</time>
      </trkpt>
      <trkpt lat="47.12781" lon="5.99129">
        <ele>441</ele>
        <time>2022-06-18T13:13:43Z</time>
      </trkpt>
      <trkpt lat="47.12805" lon="5.99179">
        <ele>441</ele>
        <time>2022-06-18T13:13:53Z</time>
      </trkpt>
      <trkpt lat="47.1283" lon="5.992">
        <ele>441</ele>
        <time>2022-06-18T13:14:00Z</time>
      </trkpt>
      <trkpt lat="47.12844" lon="5.99223">
        <ele>440</ele>
        <time>2022-06-18T13:14:05Z</time>
      </trkpt>
      <trkpt lat="47.1288" lon="5.99353">
        <ele>440</ele>
        <time>2022-06-18T13:14:27Z</time>
      </trkpt>
      <trkpt lat="47.12928" lon="5.99463">
        <ele>437</ele>
        <time>2022-06-18T13:14:48Z</time>
      </trkpt>
      <trkpt lat="47.12945" lon="5.99528">
        <ele>436</ele>
        <time>2022-06-18T13:14:59Z</time>
      </trkpt>
      <trkpt lat="47.12965" lon="5.99566">
        <ele>434</ele>
        <time>2022-06-18T13:15:06Z</time>
      </trkpt>
      <trkpt lat="47.12976" lon="5.99602">
        <ele>433</ele>
        <time>2022-06-18T13:15:13Z</time>
      </trkpt>
      <trkpt lat="47.12991" lon="5.99631">
        <ele>431</ele>
        <time>2022-06-18T13:15:18Z</time>
      </trkpt>
      <trkpt lat="47.12995" lon="5.99694">
        <ele>431</ele>
        <time>2022-06-18T13:15:29Z</time>
      </trkpt>
      <trkpt lat="47.1301" lon="5.99739">
        <ele>430</ele>
        <time>2022-06-18T13:15:36Z</time>
      </trkpt>
      <trkpt lat="47.13054" lon="5.99845">
        <ele>430</ele>
        <time>2022-06-18T13:15:56Z</time>
      </trkpt>
      <trkpt lat="47.13072" lon="5.9987">
        <ele>429</ele>
        <time>2022-06-18T13:16:02Z</time>
      </trkpt>
      <trkpt lat="47.13094" lon="5.9989">
        <ele>428</ele>
        <time>2022-06-18T13:16:08Z</time>
      </trkpt>
      <trkpt lat="47.13102" lon="5.99904">
        <ele>427</ele>
        <time>2022-06-18T13:16:11Z</time>
      </trkpt>
      <trkpt lat="47.13112" lon="5.99965">
        <ele>426</ele>
        <time>2022-06-18T13:16:21Z</time>
      </trkpt>
      <trkpt lat="47.13143" lon="6.0002">
        <ele>423</ele>
        <time>2022-06-18T13:16:32Z</time>
      </trkpt>
      <trkpt lat="47.13177" lon="6.00056">
        <ele>420</ele>
        <time>2022-06-18T13:16:42Z</time>
      </trkpt>
      <trkpt lat="47.13215" lon="6.00086">
        <ele>419</ele>
        <time>2022-06-18T13:16:52Z</time>
      </trkpt>
      <trkpt lat="47.13322" lon="6.00132">
        <ele>417</ele>
        <time>2022-06-18T13:17:18Z</time>
      </trkpt>
      <trkpt lat="47.13356" lon="6.00153">
        <ele>417</ele>
        <time>2022-06-18T13:17:27Z</time>
      </trkpt>
      <trkpt lat="47.13391" lon="6.00193">
        <ele>418</ele>
        <time>2022-06-18T13:17:37Z</time>
      </trkpt>
      <trkpt lat="47.13444" lon="6.00236">
        <ele>419</ele>
        <time>2022-06-18T13:17:51Z</time>
      </trkpt>
      <trkpt lat="47.13519" lon="6.00338">
        <ele>422</ele>
        <time>2022-06-18T13:18:15Z</time>
      </trkpt>
      <trkpt lat="47.13545" lon="6.00438">
        <ele>424</ele>
        <time>2022-06-18T13:18:32Z</time>
      </trkpt>
      <trkpt lat="47.13551" lon="6.00529">
        <ele>428</ele>
        <time>2022-06-18T13:18:47Z</time>
      </trkpt>
      <trkpt lat="47.13551" lon="6.00569">
        <ele>429</ele>
        <time>2022-06-18T13:18:53Z</time>
      </trkpt>
      <trkpt lat="47.13542" lon="6.00615">
        <ele>429</ele>
        <time>2022-06-18T13:19:01Z</time>
      </trkpt>
      <trkpt lat="47.13538" lon="6.00682">
        <ele>430</ele>
        <time>2022-06-18T13:19:11Z</time>
      </trkpt>
      <trkpt lat="47.13521" lon="6.00765">
        <ele>429</ele>
        <time>2022-06-18T13:19:25Z</time>
      </trkpt>
      <trkpt lat="47.13496" lon="6.0082">
        <ele>430</ele>
        <time>2022-06-18T13:19:36Z</time>
      </trkpt>
      <trkpt lat="47.13461" lon="6.00915">
        <ele>433</ele>
        <time>2022-06-18T13:19:53Z</time>
      </trkpt>
      <trkpt lat="47.13431" lon="6.00962">
        <ele>433</ele>
        <time>2022-06-18T13:20:03Z</time>
      </trkpt>
      <trkpt lat="47.13411" lon="6.01007">
        <ele>433</ele>
        <time>2022-06-18T13:20:12Z</time>
      </trkpt>
      <trkpt lat="47.1337" lon="6.01081">
        <ele>433</ele>
        <time>2022-06-18T13:20:27Z</time>
      </trkpt>
      <trkpt lat="47.13306" lon="6.01181">
        <ele>435</ele>
        <time>2022-06-18T13:20:48Z</time>
      </trkpt>
      <trkpt lat="47.13199" lon="6.01295">
        <ele>438</ele>
        <time>2022-06-18T13:21:19Z</time>
      </trkpt>
      <trkpt lat="47.13146" lon="6.01338">
        <ele>439</ele>
        <time>2022-06-18T13:21:33Z</time>
      </trkpt>
      <trkpt lat="47.13127" lon="6.01341">
        <ele>439</ele>
        <time>2022-06-18T13:21:38Z</time>
      </trkpt>
      <trkpt lat="47.13108" lon="6.01333">
        <ele>440</ele>
        <time>2022-06-18T13:21:43Z</time>
      </trkpt>
      <trkpt lat="47.13083" lon="6.01331">
        <ele>441</ele>
        <time>2022-06-18T13:21:48Z</time>
      </trkpt>
      <trkpt lat="47.13068" lon="6.01335">
        <ele>442</ele>
        <time>2022-06-18T13:21:52Z</time>
      </trkpt>
      <trkpt lat="47.13036" lon="6.01292">
        <ele>442</ele>
        <time>2022-06-18T13:22:02Z</time>
      </trkpt>
      <trkpt lat="47.13016" lon="6.01222">
        <ele>442</ele>
        <time>2022-06-18T13:22:14Z</time>
      </trkpt>
      <trkpt lat="47.13012" lon="6.01131">
        <ele>442</ele>
        <time>2022-06-18T13:22:29Z</time>
      </trkpt>
      <trkpt lat="47.12985" lon="6.01085">
        <ele>445</ele>
        <time>2022-06-18T13:22:38Z</time>
      </trkpt>
      <trkpt lat="47.12952" lon="6.01009">
        <ele>449</ele>
        <time>2022-06-18T13:22:53Z</time>
      </trkpt>
      <trkpt lat="47.12941" lon="6.00903">
        <ele>450</ele>
        <time>2022-06-18T13:23:10Z</time>
      </trkpt>
      <trkpt lat="47.12927" lon="6.00878">
        <ele>451</ele>
        <time>2022-06-18T13:23:15Z</time>
      </trkpt>
      <trkpt lat="47.12891" lon="6.00832">
        <ele>453</ele>
        <time>2022-06-18T13:23:26Z</time>
      </trkpt>
      <trkpt lat="47.12871" lon="6.00768">
        <ele>454</ele>
        <time>2022-06-18T13:23:37Z</time>
      </trkpt>
      <trkpt lat="47.12833" lon="6.00724">
        <ele>455</ele>
        <time>2022-06-18T13:23:48Z</time>
      </trkpt>
      <trkpt lat="47.12787" lon="6.00656">
        <ele>459</ele>
        <time>2022-06-18T13:24:04Z</time>
      </trkpt>
      <trkpt lat="47.12778" lon="6.00635">
        <ele>459</ele>
        <time>2022-06-18T13:24:08Z</time>
      </trkpt>
      <trkpt lat="47.12782" lon="6.00628">
        <ele>458</ele>
        <time>2022-06-18T13:24:09Z</time>
      </trkpt>
      <trkpt lat="47.12779" lon="6.00631">
        <ele>458</ele>
        <time>2022-06-18T13:24:10Z</time>
      </trkpt>
      <trkpt lat="47.12781" lon="6.00635">
        <ele>458</ele>
        <time>2022-06-18T13:24:11Z</time>
      </trkpt>
      <trkpt lat="47.12769" lon="6.00643">
        <ele>460</ele>
        <time>2022-06-18T13:24:14Z</time>
      </trkpt>
      <trkpt lat="47.12762" lon="6.00691">
        <ele>462</ele>
        <time>2022-06-18T13:24:22Z</time>
      </trkpt>
      <trkpt lat="47.12731" lon="6.0076">
        <ele>465</ele>
        <time>2022-06-18T13:24:35Z</time>
      </trkpt>
      <trkpt lat="47.127" lon="6.00804">
        <ele>464</ele>
        <time>2022-06-18T13:24:45Z</time>
      </trkpt>
      <trkpt lat="47.12686" lon="6.00836">
        <ele>463</ele>
        <time>2022-06-18T13:24:51Z</time>
      </trkpt>
      <trkpt lat="47.12649" lon="6.01015">
        <ele>461</ele>
        <time>2022-06-18T13:25:21Z</time>
      </trkpt>
      <trkpt lat="47.12635" lon="6.01059">
        <ele>461</ele>
        <time>2022-06-18T13:25:28Z</time>
      </trkpt>
      <trkpt lat="47.12571" lon="6.01157">
        <ele>468</ele>
        <time>2022-06-18T13:25:50Z</time>
      </trkpt>
      <trkpt lat="47.12523" lon="6.01246">
        <ele>476</ele>
        <time>2022-06-18T13:26:08Z</time>
      </trkpt>
      <trkpt lat="47.125" lon="6.01301">
        <ele>477</ele>
        <time>2022-06-18T13:26:18Z</time>
      </trkpt>
      <trkpt lat="47.12493" lon="6.01309">
        <ele>477</ele>
        <time>2022-06-18T13:26:20Z</time>
      </trkpt>
      <trkpt lat="47.12469" lon="6.01327">
        <ele>477</ele>
        <time>2022-06-18T13:26:27Z</time>
      </trkpt>
      <trkpt lat="47.12424" lon="6.01347">
        <ele>478</ele>
        <time>2022-06-18T13:26:38Z</time>
      </trkpt>
      <trkpt lat="47.124" lon="6.01356">
        <ele>477</ele>
        <time>2022-06-18T13:26:43Z</time>
      </trkpt>
      <trkpt lat="47.12367" lon="6.01358">
        <ele>475</ele>
        <time>2022-06-18T13:26:51Z</time>
      </trkpt>
      <trkpt lat="47.12347" lon="6.01364">
        <ele>474</ele>
        <time>2022-06-18T13:26:56Z</time>
      </trkpt>
      <trkpt lat="47.12336" lon="6.0137">
        <ele>474</ele>
        <time>2022-06-18T13:26:59Z</time>
      </trkpt>
      <trkpt lat="47.12324" lon="6.01386">
        <ele>473</ele>
        <time>2022-06-18T13:27:02Z</time>
      </trkpt>
      <trkpt lat="47.12319" lon="6.01407">
        <ele>474</ele>
        <time>2022-06-18T13:27:06Z</time>
      </trkpt>
      <trkpt lat="47.12321" lon="6.01438">
        <ele>474</ele>
        <time>2022-06-18T13:27:11Z</time>
      </trkpt>
      <trkpt lat="47.1231" lon="6.01512">
        <ele>476</ele>
        <time>2022-06-18T13:27:23Z</time>
      </trkpt>
      <trkpt lat="47.12288" lon="6.01572">
        <ele>477</ele>
        <time>2022-06-18T13:27:34Z</time>
      </trkpt>
      <trkpt lat="47.12257" lon="6.01681">
        <ele>477</ele>
        <time>2022-06-18T13:27:52Z</time>
      </trkpt>
      <trkpt lat="47.12239" lon="6.01709">
        <ele>477</ele>
        <time>2022-06-18T13:27:59Z</time>
      </trkpt>
      <trkpt lat="47.12219" lon="6.01727">
        <ele>476</ele>
        <time>2022-06-18T13:28:04Z</time>
      </trkpt>
      <trkpt lat="47.12207" lon="6.01754">
        <ele>475</ele>
        <time>2022-06-18T13:28:09Z</time>
      </trkpt>
      <trkpt lat="47.12191" lon="6.01774">
        <ele>475</ele>
        <time>2022-06-18T13:28:14Z</time>
      </trkpt>
      <trkpt lat="47.12175" lon="6.01805">
        <ele>473</ele>
        <time>2022-06-18T13:28:20Z</time>
      </trkpt>
      <trkpt lat="47.12147" lon="6.01833">
        <ele>470</ele>
        <time>2022-06-18T13:28:28Z</time>
      </trkpt>
      <trkpt lat="47.12135" lon="6.01851">
        <ele>469</ele>
        <time>2022-06-18T13:28:32Z</time>
      </trkpt>
      <trkpt lat="47.12118" lon="6.0191">
        <ele>466</ele>
        <time>2022-06-18T13:28:42Z</time>
      </trkpt>
      <trkpt lat="47.1208" lon="6.01966">
        <ele>463</ele>
        <time>2022-06-18T13:28:55Z</time>
      </trkpt>
      <trkpt lat="47.12029" lon="6.02086">
        <ele>464</ele>
        <time>2022-06-18T13:29:17Z</time>
      </trkpt>
      <trkpt lat="47.11986" lon="6.0216">
        <ele>465</ele>
        <time>2022-06-18T13:29:33Z</time>
      </trkpt>
      <trkpt lat="47.11918" lon="6.02306">
        <ele>465</ele>
        <time>2022-06-18T13:30:01Z</time>
      </trkpt>
      <trkpt lat="47.11836" lon="6.02447">
        <ele>461</ele>
        <time>2022-06-18T13:30:30Z</time>
      </trkpt>
      <trkpt lat="47.11838" lon="6.02478">
        <ele>462</ele>
        <time>2022-06-18T13:30:35Z</time>
      </trkpt>
      <trkpt lat="47.11785" lon="6.02546">
        <ele>462</ele>
        <time>2022-06-18T13:30:52Z</time>
      </trkpt>
      <trkpt lat="47.11776" lon="6.02563">
        <ele>462</ele>
        <time>2022-06-18T13:30:55Z</time>
      </trkpt>
      <trkpt lat="47.11771" lon="6.02587">
        <ele>462</ele>
        <time>2022-06-18T13:30:59Z</time>
      </trkpt>
      <trkpt lat="47.11771" lon="6.02615">
        <ele>462</ele>
        <time>2022-06-18T13:31:04Z</time>
      </trkpt>
      <trkpt lat="47.11781" lon="6.02672">
        <ele>463</ele>
        <time>2022-06-18T13:31:13Z</time>
      </trkpt>
      <trkpt lat="47.11799" lon="6.02712">
        <ele>463</ele>
        <time>2022-06-18T13:31:21Z</time>
      </trkpt>
      <trkpt lat="47.11898" lon="6.02885">
        <ele>465</ele>
        <time>2022-06-18T13:31:57Z</time>
      </trkpt>
      <trkpt lat="47.11921" lon="6.02933">
        <ele>464</ele>
        <time>2022-06-18T13:32:06Z</time>
      </trkpt>
      <trkpt lat="47.11928" lon="6.02963">
        <ele>464</ele>
        <time>2022-06-18T13:32:11Z</time>
      </trkpt>
      <trkpt lat="47.1192" lon="6.02968">
        <ele>464</ele>
        <time>2022-06-18T13:32:13Z</time>
      </trkpt>
      <trkpt lat="47.11904" lon="6.0299">
        <ele>465</ele>
        <time>2022-06-18T13:32:18Z</time>
      </trkpt>
      <trkpt lat="47.11854" lon="6.0307">
        <ele>466</ele>
        <time>2022-06-18T13:32:35Z</time>
      </trkpt>
      <trkpt lat="47.11822" lon="6.0314">
        <ele>467</ele>
        <time>2022-06-18T13:32:49Z</time>
      </trkpt>
      <trkpt lat="47.11797" lon="6.03184">
        <ele>472</ele>
        <time>2022-06-18T13:32:58Z</time>
      </trkpt>
      <trkpt lat="47.11774" lon="6.03246">
        <ele>473</ele>
        <time>2022-06-18T13:33:09Z</time>
      </trkpt>
      <trkpt lat="47.11754" lon="6.0328">
        <ele>475</ele>
        <time>2022-06-18T13:33:16Z</time>
      </trkpt>
      <trkpt lat="47.11698" lon="6.03354">
        <ele>478</ele>
        <time>2022-06-18T13:33:34Z</time>
      </trkpt>
      <trkpt lat="47.11663" lon="6.03376">
        <ele>482</ele>
        <time>2022-06-18T13:33:43Z</time>
      </trkpt>
      <trkpt lat="47.11662" lon="6.03385">
        <ele>481</ele>
        <time>2022-06-18T13:33:44Z</time>
      </trkpt>
      <trkpt lat="47.11651" lon="6.03399">
        <ele>482</ele>
        <time>2022-06-18T13:33:48Z</time>
      </trkpt>
      <trkpt lat="47.11584" lon="6.03461">
        <ele>481</ele>
        <time>2022-06-18T13:34:06Z</time>
      </trkpt>
      <trkpt lat="47.11544" lon="6.03479">
        <ele>479</ele>
        <time>2022-06-18T13:34:16Z</time>
      </trkpt>
      <trkpt lat="47.11483" lon="6.0349">
        <ele>477</ele>
        <time>2022-06-18T13:34:30Z</time>
      </trkpt>
      <trkpt lat="47.11401" lon="6.03461">
        <ele>475</ele>
        <time>2022-06-18T13:34:50Z</time>
      </trkpt>
      <trkpt lat="47.11378" lon="6.03444">
        <ele>474</ele>
        <time>2022-06-18T13:34:56Z</time>
      </trkpt>
      <trkpt lat="47.11358" lon="6.03421">
        <ele>473</ele>
        <time>2022-06-18T13:35:02Z</time>
      </trkpt>
      <trkpt lat="47.1131" lon="6.03346">
        <ele>474</ele>
        <time>2022-06-18T13:35:18Z</time>
      </trkpt>
      <trkpt lat="47.11207" lon="6.03212">
        <ele>469</ele>
        <time>2022-06-18T13:35:50Z</time>
      </trkpt>
      <trkpt lat="47.11191" lon="6.03178">
        <ele>470</ele>
        <time>2022-06-18T13:35:57Z</time>
      </trkpt>
      <trkpt lat="47.11165" lon="6.0314">
        <ele>469</ele>
        <time>2022-06-18T13:36:05Z</time>
      </trkpt>
      <trkpt lat="47.11128" lon="6.03094">
        <ele>468</ele>
        <time>2022-06-18T13:36:17Z</time>
      </trkpt>
      <trkpt lat="47.11108" lon="6.03075">
        <ele>467</ele>
        <time>2022-06-18T13:36:22Z</time>
      </trkpt>
      <trkpt lat="47.11102" lon="6.03065">
        <ele>468</ele>
        <time>2022-06-18T13:36:24Z</time>
      </trkpt>
      <trkpt lat="47.11102" lon="6.03054">
        <ele>471</ele>
        <time>2022-06-18T13:36:26Z</time>
      </trkpt>
      <trkpt lat="47.11109" lon="6.03018">
        <ele>481</ele>
        <time>2022-06-18T13:36:32Z</time>
      </trkpt>
      <trkpt lat="47.11106" lon="6.02999">
        <ele>486</ele>
        <time>2022-06-18T13:36:35Z</time>
      </trkpt>
      <trkpt lat="47.1111" lon="6.02993">
        <ele>488</ele>
        <time>2022-06-18T13:36:37Z</time>
      </trkpt>
      <trkpt lat="47.11089" lon="6.02974">
        <ele>491</ele>
        <time>2022-06-18T13:36:42Z</time>
      </trkpt>
      <trkpt lat="47.11029" lon="6.02956">
        <ele>489</ele>
        <time>2022-06-18T13:36:57Z</time>
      </trkpt>
      <trkpt lat="47.10981" lon="6.02955">
        <ele>486</ele>
        <time>2022-06-18T13:37:08Z</time>
      </trkpt>
      <trkpt lat="47.10915" lon="6.02971">
        <ele>478</ele>
        <time>2022-06-18T13:37:23Z</time>
      </trkpt>
      <trkpt lat="47.10865" lon="6.0299">
        <ele>470</ele>
        <time>2022-06-18T13:37:36Z</time>
      </trkpt>
      <trkpt lat="47.10808" lon="6.02997">
        <ele>465</ele>
        <time>2022-06-18T13:37:49Z</time>
      </trkpt>
      <trkpt lat="47.10774" lon="6.03006">
        <ele>461</ele>
        <time>2022-06-18T13:37:57Z</time>
      </trkpt>
      <trkpt lat="47.10725" lon="6.03007">
        <ele>456</ele>
        <time>2022-06-18T13:38:08Z</time>
      </trkpt>
      <trkpt lat="47.10689" lon="6.02998">
        <ele>453</ele>
        <time>2022-06-18T13:38:17Z</time>
      </trkpt>
      <trkpt lat="47.10679" lon="6.02999">
        <ele>451</ele>
        <time>2022-06-18T13:38:19Z</time>
      </trkpt>
      <trkpt lat="47.10671" lon="6.02997">
        <ele>451</ele>
        <time>2022-06-18T13:38:21Z</time>
      </trkpt>
      <trkpt lat="47.10628" lon="6.02963">
        <ele>452</ele>
        <time>2022-06-18T13:38:33Z</time>
      </trkpt>
      <trkpt lat="47.10591" lon="6.0294">
        <ele>448</ele>
        <time>2022-06-18T13:38:42Z</time>
      </trkpt>
      <trkpt lat="47.10547" lon="6.02928">
        <ele>440</ele>
        <time>2022-06-18T13:38:52Z</time>
      </trkpt>
      <trkpt lat="47.10474" lon="6.02855">
        <ele>436</ele>
        <time>2022-06-18T13:39:13Z</time>
      </trkpt>
      <trkpt lat="47.10419" lon="6.02819">
        <ele>432</ele>
        <time>2022-06-18T13:39:27Z</time>
      </trkpt>
      <trkpt lat="47.1038" lon="6.02803">
        <ele>430</ele>
        <time>2022-06-18T13:39:37Z</time>
      </trkpt>
      <trkpt lat="47.10351" lon="6.02783">
        <ele>429</ele>
        <time>2022-06-18T13:39:44Z</time>
      </trkpt>
      <trkpt lat="47.10305" lon="6.02734">
        <ele>433</ele>
        <time>2022-06-18T13:39:57Z</time>
      </trkpt>
      <trkpt lat="47.1024" lon="6.02711">
        <ele>428</ele>
        <time>2022-06-18T13:40:13Z</time>
      </trkpt>
      <trkpt lat="47.10182" lon="6.02679">
        <ele>426</ele>
        <time>2022-06-18T13:40:27Z</time>
      </trkpt>
      <trkpt lat="47.10169" lon="6.0268">
        <ele>423</ele>
        <time>2022-06-18T13:40:30Z</time>
      </trkpt>
      <trkpt lat="47.1016" lon="6.02691">
        <ele>421</ele>
        <time>2022-06-18T13:40:33Z</time>
      </trkpt>
      <trkpt lat="47.10153" lon="6.02774">
        <ele>409</ele>
        <time>2022-06-18T13:40:46Z</time>
      </trkpt>
      <trkpt lat="47.10145" lon="6.02793">
        <ele>407</ele>
        <time>2022-06-18T13:40:50Z</time>
      </trkpt>
      <trkpt lat="47.10122" lon="6.02798">
        <ele>406</ele>
        <time>2022-06-18T13:40:55Z</time>
      </trkpt>
      <trkpt lat="47.10092" lon="6.02789">
        <ele>406</ele>
        <time>2022-06-18T13:41:03Z</time>
      </trkpt>
      <trkpt lat="47.10068" lon="6.02788">
        <ele>407</ele>
        <time>2022-06-18T13:41:08Z</time>
      </trkpt>
      <trkpt lat="47.09987" lon="6.02803">
        <ele>407</ele>
        <time>2022-06-18T13:41:27Z</time>
      </trkpt>
      <trkpt lat="47.09916" lon="6.02714">
        <ele>416</ele>
        <time>2022-06-18T13:41:49Z</time>
      </trkpt>
      <trkpt lat="47.09894" lon="6.02694">
        <ele>418</ele>
        <time>2022-06-18T13:41:55Z</time>
      </trkpt>
      <trkpt lat="47.09821" lon="6.02654">
        <ele>422</ele>
        <time>2022-06-18T13:42:13Z</time>
      </trkpt>
      <trkpt lat="47.09797" lon="6.02636">
        <ele>425</ele>
        <time>2022-06-18T13:42:20Z</time>
      </trkpt>
      <trkpt lat="47.0978" lon="6.02617">
        <ele>428</ele>
        <time>2022-06-18T13:42:25Z</time>
      </trkpt>
      <trkpt lat="47.09748" lon="6.02599">
        <ele>431</ele>
        <time>2022-06-18T13:42:33Z</time>
      </trkpt>
      <trkpt lat="47.09724" lon="6.02596">
        <ele>433</ele>
        <time>2022-06-18T13:42:38Z</time>
      </trkpt>
      <trkpt lat="47.09598" lon="6.02601">
        <ele>435</ele>
        <time>2022-06-18T13:43:08Z</time>
      </trkpt>
      <trkpt lat="47.09523" lon="6.02599">
        <ele>434</ele>
        <time>2022-06-18T13:43:25Z</time>
      </trkpt>
      <trkpt lat="47.09458" lon="6.02611">
        <ele>429</ele>
        <time>2022-06-18T13:43:40Z</time>
      </trkpt>
      <trkpt lat="47.09374" lon="6.02602">
        <ele>427</ele>
        <time>2022-06-18T13:44:00Z</time>
      </trkpt>
      <trkpt lat="47.0934" lon="6.02595">
        <ele>426</ele>
        <time>2022-06-18T13:44:08Z</time>
      </trkpt>
      <trkpt lat="47.09314" lon="6.02584">
        <ele>424</ele>
        <time>2022-06-18T13:44:14Z</time>
      </trkpt>
      <trkpt lat="47.09265" lon="6.02541">
        <ele>424</ele>
        <time>2022-06-18T13:44:28Z</time>
      </trkpt>
      <trkpt lat="47.09182" lon="6.02435">
        <ele>424</ele>
        <time>2022-06-18T13:44:53Z</time>
      </trkpt>
      <trkpt lat="47.09023" lon="6.02191">
        <ele>417</ele>
        <time>2022-06-18T13:45:47Z</time>
      </trkpt>
      <trkpt lat="47.09008" lon="6.02156">
        <ele>416</ele>
        <time>2022-06-18T13:45:54Z</time>
      </trkpt>
      <trkpt lat="47.09" lon="6.0212">
        <ele>416</ele>
        <time>2022-06-18T13:46:00Z</time>
      </trkpt>
      <trkpt lat="47.0897" lon="6.01917">
        <ele>415</ele>
        <time>2022-06-18T13:46:33Z</time>
      </trkpt>
      <trkpt lat="47.08948" lon="6.01847">
        <ele>418</ele>
        <time>2022-06-18T13:46:45Z</time>
      </trkpt>
      <trkpt lat="47.08932" lon="6.01823">
        <ele>419</ele>
        <time>2022-06-18T13:46:50Z</time>
      </trkpt>
      <trkpt lat="47.08899" lon="6.01797">
        <ele>421</ele>
        <time>2022-06-18T13:46:59Z</time>
      </trkpt>
      <trkpt lat="47.08834" lon="6.0177">
        <ele>428</ele>
        <time>2022-06-18T13:47:15Z</time>
      </trkpt>
      <trkpt lat="47.08804" lon="6.01744">
        <ele>435</ele>
        <time>2022-06-18T13:47:23Z</time>
      </trkpt>
      <trkpt lat="47.08784" lon="6.01741">
        <ele>436</ele>
        <time>2022-06-18T13:47:28Z</time>
      </trkpt>
      <trkpt lat="47.08649" lon="6.0164">
        <ele>453</ele>
        <time>2022-06-18T13:48:03Z</time>
      </trkpt>
      <trkpt lat="47.08584" lon="6.01604">
        <ele>456</ele>
        <time>2022-06-18T13:48:19Z</time>
      </trkpt>
      <trkpt lat="47.08574" lon="6.01603">
        <ele>456</ele>
        <time>2022-06-18T13:48:22Z</time>
      </trkpt>
      <trkpt lat="47.08543" lon="6.01588">
        <ele>458</ele>
        <time>2022-06-18T13:48:29Z</time>
      </trkpt>
      <trkpt lat="47.0853" lon="6.01587">
        <ele>458</ele>
        <time>2022-06-18T13:48:32Z</time>
      </trkpt>
      <trkpt lat="47.08489" lon="6.01561">
        <ele>463</ele>
        <time>2022-06-18T13:48:43Z</time>
      </trkpt>
      <trkpt lat="47.0848" lon="6.01559">
        <ele>463</ele>
        <time>2022-06-18T13:48:45Z</time>
      </trkpt>
      <trkpt lat="47.08468" lon="6.01548">
        <ele>464</ele>
        <time>2022-06-18T13:48:48Z</time>
      </trkpt>
      <trkpt lat="47.08466" lon="6.01534">
        <ele>467</ele>
        <time>2022-06-18T13:48:50Z</time>
      </trkpt>
      <trkpt lat="47.08472" lon="6.01534">
        <ele>468</ele>
        <time>2022-06-18T13:48:52Z</time>
      </trkpt>
      <trkpt lat="47.0845" lon="6.0153">
        <ele>465</ele>
        <time>2022-06-18T13:48:57Z</time>
      </trkpt>
      <trkpt lat="47.08436" lon="6.01521">
        <ele>464</ele>
        <time>2022-06-18T13:49:01Z</time>
      </trkpt>
      <trkpt lat="47.084" lon="6.01487">
        <ele>463</ele>
        <time>2022-06-18T13:49:11Z</time>
      </trkpt>
      <trkpt lat="47.08375" lon="6.01457">
        <ele>464</ele>
        <time>2022-06-18T13:49:18Z</time>
      </trkpt>
      <trkpt lat="47.08356" lon="6.01417">
        <ele>468</ele>
        <time>2022-06-18T13:49:26Z</time>
      </trkpt>
      <trkpt lat="47.0833" lon="6.01343">
        <ele>469</ele>
        <time>2022-06-18T13:49:39Z</time>
      </trkpt>
      <trkpt lat="47.08294" lon="6.01221">
        <ele>470</ele>
        <time>2022-06-18T13:50:00Z</time>
      </trkpt>
      <trkpt lat="47.08282" lon="6.01161">
        <ele>470</ele>
        <time>2022-06-18T13:50:10Z</time>
      </trkpt>
      <trkpt lat="47.08264" lon="6.01107">
        <ele>468</ele>
        <time>2022-06-18T13:50:20Z</time>
      </trkpt>
      <trkpt lat="47.08267" lon="6.01088">
        <ele>471</ele>
        <time>2022-06-18T13:50:23Z</time>
      </trkpt>
      <trkpt lat="47.08287" lon="6.01039">
        <ele>483</ele>
        <time>2022-06-18T13:50:32Z</time>
      </trkpt>
      <trkpt lat="47.083" lon="6.00987">
        <ele>492</ele>
        <time>2022-06-18T13:50:41Z</time>
      </trkpt>
      <trkpt lat="47.08328" lon="6.0096">
        <ele>500</ele>
        <time>2022-06-18T13:50:49Z</time>
      </trkpt>
      <trkpt lat="47.08331" lon="6.0095">
        <ele>501</ele>
        <time>2022-06-18T13:50:50Z</time>
      </trkpt>
      <trkpt lat="47.0832" lon="6.00939">
        <ele>501</ele>
        <time>2022-06-18T13:50:53Z</time>
      </trkpt>
      <trkpt lat="47.0828" lon="6.0092">
        <ele>500</ele>
        <time>2022-06-18T13:51:03Z</time>
      </trkpt>
      <trkpt lat="47.08267" lon="6.00921">
        <ele>498</ele>
        <time>2022-06-18T13:51:06Z</time>
      </trkpt>
      <trkpt lat="47.08233" lon="6.00938">
        <ele>492</ele>
        <time>2022-06-18T13:51:15Z</time>
      </trkpt>
      <trkpt lat="47.082" lon="6.00946">
        <ele>487</ele>
        <time>2022-06-18T13:51:22Z</time>
      </trkpt>
      <trkpt lat="47.08176" lon="6.00943">
        <ele>486</ele>
        <time>2022-06-18T13:51:28Z</time>
      </trkpt>
      <trkpt lat="47.08054" lon="6.00876">
        <ele>482</ele>
        <time>2022-06-18T13:51:59Z</time>
      </trkpt>
      <trkpt lat="47.07983" lon="6.00824">
        <ele>477</ele>
        <time>2022-06-18T13:52:17Z</time>
      </trkpt>
      <trkpt lat="47.07931" lon="6.00748">
        <ele>476</ele>
        <time>2022-06-18T13:52:34Z</time>
      </trkpt>
      <trkpt lat="47.07899" lon="6.00665">
        <ele>477</ele>
        <time>2022-06-18T13:52:49Z</time>
      </trkpt>
      <trkpt lat="47.07887" lon="6.0061">
        <ele>478</ele>
        <time>2022-06-18T13:52:59Z</time>
      </trkpt>
      <trkpt lat="47.07878" lon="6.00592">
        <ele>477</ele>
        <time>2022-06-18T13:53:02Z</time>
      </trkpt>
      <trkpt lat="47.07875" lon="6.00608">
        <ele>474</ele>
        <time>2022-06-18T13:53:05Z</time>
      </trkpt>
      <trkpt lat="47.07877" lon="6.00596">
        <ele>476</ele>
        <time>2022-06-18T13:53:07Z</time>
      </trkpt>
      <trkpt lat="47.07871" lon="6.00543">
        <ele>474</ele>
        <time>2022-06-18T13:53:15Z</time>
      </trkpt>
      <trkpt lat="47.07873" lon="6.00515">
        <ele>474</ele>
        <time>2022-06-18T13:53:20Z</time>
      </trkpt>
      <trkpt lat="47.07889" lon="6.00447">
        <ele>473</ele>
        <time>2022-06-18T13:53:31Z</time>
      </trkpt>
      <trkpt lat="47.07893" lon="6.00436">
        <ele>473</ele>
        <time>2022-06-18T13:53:33Z</time>
      </trkpt>
      <trkpt lat="47.07919" lon="6.00403">
        <ele>475</ele>
        <time>2022-06-18T13:53:41Z</time>
      </trkpt>
      <trkpt lat="47.07953" lon="6.0037">
        <ele>472</ele>
        <time>2022-06-18T13:53:51Z</time>
      </trkpt>
      <trkpt lat="47.07974" lon="6.00361">
        <ele>472</ele>
        <time>2022-06-18T13:53:56Z</time>
      </trkpt>
      <trkpt lat="47.08017" lon="6.00357">
        <ele>474</ele>
        <time>2022-06-18T13:54:06Z</time>
      </trkpt>
      <trkpt lat="47.08054" lon="6.00362">
        <ele>476</ele>
        <time>2022-06-18T13:54:15Z</time>
      </trkpt>
      <trkpt lat="47.08092" lon="6.00379">
        <ele>479</ele>
        <time>2022-06-18T13:54:24Z</time>
      </trkpt>
      <trkpt lat="47.08164" lon="6.004">
        <ele>479</ele>
        <time>2022-06-18T13:54:41Z</time>
      </trkpt>
      <trkpt lat="47.08233" lon="6.00397">
        <ele>484</ele>
        <time>2022-06-18T13:54:57Z</time>
      </trkpt>
      <trkpt lat="47.08313" lon="6.00403">
        <ele>486</ele>
        <time>2022-06-18T13:55:16Z</time>
      </trkpt>
      <trkpt lat="47.08382" lon="6.0044">
        <ele>490</ele>
        <time>2022-06-18T13:55:33Z</time>
      </trkpt>
      <trkpt lat="47.08502" lon="6.00496">
        <ele>493</ele>
        <time>2022-06-18T13:56:02Z</time>
      </trkpt>
      <trkpt lat="47.08519" lon="6.00515">
        <ele>494</ele>
        <time>2022-06-18T13:56:07Z</time>
      </trkpt>
      <trkpt lat="47.08539" lon="6.00517">
        <ele>491</ele>
        <time>2022-06-18T13:56:12Z</time>
      </trkpt>
      <trkpt lat="47.0856" lon="6.00532">
        <ele>492</ele>
        <time>2022-06-18T13:56:17Z</time>
      </trkpt>
      <trkpt lat="47.08572" lon="6.00533">
        <ele>490</ele>
        <time>2022-06-18T13:56:20Z</time>
      </trkpt>
      <trkpt lat="47.08614" lon="6.00566">
        <ele>492</ele>
        <time>2022-06-18T13:56:31Z</time>
      </trkpt>
      <trkpt lat="47.08645" lon="6.00572">
        <ele>489</ele>
        <time>2022-06-18T13:56:39Z</time>
      </trkpt>
      <trkpt lat="47.08663" lon="6.00581">
        <ele>489</ele>
        <time>2022-06-18T13:56:43Z</time>
      </trkpt>
      <trkpt lat="47.0872" lon="6.00573">
        <ele>483</ele>
        <time>2022-06-18T13:56:57Z</time>
      </trkpt>
      <trkpt lat="47.08784" lon="6.00575">
        <ele>484</ele>
        <time>2022-06-18T13:57:11Z</time>
      </trkpt>
      <trkpt lat="47.08816" lon="6.00549">
        <ele>481</ele>
        <time>2022-06-18T13:57:20Z</time>
      </trkpt>
      <trkpt lat="47.08838" lon="6.00539">
        <ele>480</ele>
        <time>2022-06-18T13:57:25Z</time>
      </trkpt>
      <trkpt lat="47.08846" lon="6.00542">
        <ele>481</ele>
        <time>2022-06-18T13:57:27Z</time>
      </trkpt>
      <trkpt lat="47.08862" lon="6.00553">
        <ele>484</ele>
        <time>2022-06-18T13:57:31Z</time>
      </trkpt>
      <trkpt lat="47.08901" lon="6.00603">
        <ele>487</ele>
        <time>2022-06-18T13:57:44Z</time>
      </trkpt>
      <trkpt lat="47.08922" lon="6.00685">
        <ele>487</ele>
        <time>2022-06-18T13:57:57Z</time>
      </trkpt>
      <trkpt lat="47.08934" lon="6.00721">
        <ele>485</ele>
        <time>2022-06-18T13:58:04Z</time>
      </trkpt>
      <trkpt lat="47.08954" lon="6.00763">
        <ele>481</ele>
        <time>2022-06-18T13:58:12Z</time>
      </trkpt>
      <trkpt lat="47.0898" lon="6.00802">
        <ele>478</ele>
        <time>2022-06-18T13:58:21Z</time>
      </trkpt>
      <trkpt lat="47.0902" lon="6.00846">
        <ele>472</ele>
        <time>2022-06-18T13:58:32Z</time>
      </trkpt>
      <trkpt lat="47.09111" lon="6.00904">
        <ele>457</ele>
        <time>2022-06-18T13:58:55Z</time>
      </trkpt>
      <trkpt lat="47.09187" lon="6.00942">
        <ele>446</ele>
        <time>2022-06-18T13:59:14Z</time>
      </trkpt>
      <trkpt lat="47.09332" lon="6.01035">
        <ele>422</ele>
        <time>2022-06-18T13:59:51Z</time>
      </trkpt>
      <trkpt lat="47.09381" lon="6.01055">
        <ele>415</ele>
        <time>2022-06-18T14:00:03Z</time>
      </trkpt>
      <trkpt lat="47.09426" lon="6.01093">
        <ele>411</ele>
        <time>2022-06-18T14:00:15Z</time>
      </trkpt>
      <trkpt lat="47.09446" lon="6.01094">
        <ele>408</ele>
        <time>2022-06-18T14:00:20Z</time>
      </trkpt>
      <trkpt lat="47.09469" lon="6.01088">
        <ele>405</ele>
        <time>2022-06-18T14:00:25Z</time>
      </trkpt>
      <trkpt lat="47.09491" lon="6.01098">
        <ele>402</ele>
        <time>2022-06-18T14:00:31Z</time>
      </trkpt>
      <trkpt lat="47.09511" lon="6.01115">
        <ele>400</ele>
        <time>2022-06-18T14:00:36Z</time>
      </trkpt>
      <trkpt lat="47.09523" lon="6.0111">
        <ele>399</ele>
        <time>2022-06-18T14:00:39Z</time>
      </trkpt>
      <trkpt lat="47.09557" lon="6.01076">
        <ele>396</ele>
        <time>2022-06-18T14:00:49Z</time>
      </trkpt>
      <trkpt lat="47.09596" lon="6.01025">
        <ele>393</ele>
        <time>2022-06-18T14:01:01Z</time>
      </trkpt>
      <trkpt lat="47.09618" lon="6.01032">
        <ele>393</ele>
        <time>2022-06-18T14:01:06Z</time>
      </trkpt>
      <trkpt lat="47.09626" lon="6.01029">
        <ele>393</ele>
        <time>2022-06-18T14:01:08Z</time>
      </trkpt>
      <trkpt lat="47.0969" lon="6.00959">
        <ele>391</ele>
        <time>2022-06-18T14:01:27Z</time>
      </trkpt>
      <trkpt lat="47.09749" lon="6.00863">
        <ele>389</ele>
        <time>2022-06-18T14:01:47Z</time>
      </trkpt>
      <trkpt lat="47.09753" lon="6.00848">
        <ele>388</ele>
        <time>2022-06-18T14:01:50Z</time>
      </trkpt>
      <trkpt lat="47.09751" lon="6.0082">
        <ele>388</ele>
        <time>2022-06-18T14:01:54Z</time>
      </trkpt>
      <trkpt lat="47.0974" lon="6.00796">
        <ele>387</ele>
        <time>2022-06-18T14:01:59Z</time>
      </trkpt>
      <trkpt lat="47.09727" lon="6.0078">
        <ele>387</ele>
        <time>2022-06-18T14:02:03Z</time>
      </trkpt>
      <trkpt lat="47.09728" lon="6.00774">
        <ele>387</ele>
        <time>2022-06-18T14:02:04Z</time>
      </trkpt>
      <trkpt lat="47.09772" lon="6.0071">
        <ele>387</ele>
        <time>2022-06-18T14:02:18Z</time>
      </trkpt>
      <trkpt lat="47.09798" lon="6.00591">
        <ele>391</ele>
        <time>2022-06-18T14:02:38Z</time>
      </trkpt>
      <trkpt lat="47.09812" lon="6.00455">
        <ele>397</ele>
        <time>2022-06-18T14:03:00Z</time>
      </trkpt>
      <trkpt lat="47.09808" lon="6.00333">
        <ele>402</ele>
        <time>2022-06-18T14:03:19Z</time>
      </trkpt>
      <trkpt lat="47.09815" lon="6.00247">
        <ele>406</ele>
        <time>2022-06-18T14:03:33Z</time>
      </trkpt>
      <trkpt lat="47.09814" lon="6.00199">
        <ele>408</ele>
        <time>2022-06-18T14:03:41Z</time>
      </trkpt>
      <trkpt lat="47.09803" lon="6.00123">
        <ele>410</ele>
        <time>2022-06-18T14:03:53Z</time>
      </trkpt>
      <trkpt lat="47.09805" lon="6.00091">
        <ele>411</ele>
        <time>2022-06-18T14:03:58Z</time>
      </trkpt>
      <trkpt lat="47.09812" lon="6.00059">
        <ele>412</ele>
        <time>2022-06-18T14:04:04Z</time>
      </trkpt>
      <trkpt lat="47.09862" lon="5.99904">
        <ele>413</ele>
        <time>2022-06-18T14:04:31Z</time>
      </trkpt>
      <trkpt lat="47.09878" lon="5.99876">
        <ele>414</ele>
        <time>2022-06-18T14:04:37Z</time>
      </trkpt>
      <trkpt lat="47.09872" lon="5.99805">
        <ele>411</ele>
        <time>2022-06-18T14:04:48Z</time>
      </trkpt>
      <trkpt lat="47.09909" lon="5.99546">
        <ele>410</ele>
        <time>2022-06-18T14:05:30Z</time>
      </trkpt>
      <trkpt lat="47.09915" lon="5.99415">
        <ele>410</ele>
        <time>2022-06-18T14:05:51Z</time>
      </trkpt>
      <trkpt lat="47.09932" lon="5.99275">
        <ele>409</ele>
        <time>2022-06-18T14:06:14Z</time>
      </trkpt>
      <trkpt lat="47.09955" lon="5.99186">
        <ele>407</ele>
        <time>2022-06-18T14:06:29Z</time>
      </trkpt>
      <trkpt lat="47.09963" lon="5.99121">
        <ele>405</ele>
        <time>2022-06-18T14:06:39Z</time>
      </trkpt>
      <trkpt lat="47.09987" lon="5.99044">
        <ele>404</ele>
        <time>2022-06-18T14:06:53Z</time>
      </trkpt>
      <trkpt lat="47.09993" lon="5.98981">
        <ele>403</ele>
        <time>2022-06-18T14:07:03Z</time>
      </trkpt>
      <trkpt lat="47.10005" lon="5.98934">
        <ele>403</ele>
        <time>2022-06-18T14:07:11Z</time>
      </trkpt>
      <trkpt lat="47.10029" lon="5.98879">
        <ele>401</ele>
        <time>2022-06-18T14:07:21Z</time>
      </trkpt>
      <trkpt lat="47.10067" lon="5.9882">
        <ele>398</ele>
        <time>2022-06-18T14:07:34Z</time>
      </trkpt>
      <trkpt lat="47.1008" lon="5.98791">
        <ele>397</ele>
        <time>2022-06-18T14:07:40Z</time>
      </trkpt>
      <trkpt lat="47.1011" lon="5.98676">
        <ele>393</ele>
        <time>2022-06-18T14:07:59Z</time>
      </trkpt>
      <trkpt lat="47.10165" lon="5.98533">
        <ele>386</ele>
        <time>2022-06-18T14:08:25Z</time>
      </trkpt>
      <trkpt lat="47.10189" lon="5.98485">
        <ele>385</ele>
        <time>2022-06-18T14:08:35Z</time>
      </trkpt>
      <trkpt lat="47.10211" lon="5.98449">
        <ele>385</ele>
        <time>2022-06-18T14:08:42Z</time>
      </trkpt>
      <trkpt lat="47.10241" lon="5.98414">
        <ele>386</ele>
        <time>2022-06-18T14:08:51Z</time>
      </trkpt>
      <trkpt lat="47.10307" lon="5.98318">
        <ele>388</ele>
        <time>2022-06-18T14:09:13Z</time>
      </trkpt>
      <trkpt lat="47.10374" lon="5.98194">
        <ele>388</ele>
        <time>2022-06-18T14:09:38Z</time>
      </trkpt>
      <trkpt lat="47.104" lon="5.98158">
        <ele>388</ele>
        <time>2022-06-18T14:09:47Z</time>
      </trkpt>
      <trkpt lat="47.10424" lon="5.98137">
        <ele>389</ele>
        <time>2022-06-18T14:09:53Z</time>
      </trkpt>
      <trkpt lat="47.10465" lon="5.9812">
        <ele>388</ele>
        <time>2022-06-18T14:10:03Z</time>
      </trkpt>
      <trkpt lat="47.10539" lon="5.98077">
        <ele>385</ele>
        <time>2022-06-18T14:10:22Z</time>
      </trkpt>
      <trkpt lat="47.10597" lon="5.98026">
        <ele>384</ele>
        <time>2022-06-18T14:10:37Z</time>
      </trkpt>
      <trkpt lat="47.10608" lon="5.98026">
        <ele>385</ele>
        <time>2022-06-18T14:10:40Z</time>
      </trkpt>
      <trkpt lat="47.10673" lon="5.98103">
        <ele>394</ele>
        <time>2022-06-18T14:11:00Z</time>
      </trkpt>
      <trkpt lat="47.10682" lon="5.98107">
        <ele>394</ele>
        <time>2022-06-18T14:11:02Z</time>
      </trkpt>
      <trkpt lat="47.1071" lon="5.98091">
        <ele>395</ele>
        <time>2022-06-18T14:11:09Z</time>
      </trkpt>
      <trkpt lat="47.10727" lon="5.98075">
        <ele>396</ele>
        <time>2022-06-18T14:11:13Z</time>
      </trkpt>
      <trkpt lat="47.10757" lon="5.98066">
        <ele>398</ele>
        <time>2022-06-18T14:11:21Z</time>
      </trkpt>
      <trkpt lat="47.10862" lon="5.98054">
        <ele>407</ele>
        <time>2022-06-18T14:11:45Z</time>
      </trkpt>
      <trkpt lat="47.10887" lon="5.98046">
        <ele>409</ele>
        <time>2022-06-18T14:11:51Z</time>
      </trkpt>
      <trkpt lat="47.10932" lon="5.98019">
        <ele>412</ele>
        <time>2022-06-18T14:12:03Z</time>
      </trkpt>
      <trkpt lat="47.10946" lon="5.98017">
        <ele>412</ele>
        <time>2022-06-18T14:12:06Z</time>
      </trkpt>
      <trkpt lat="47.10969" lon="5.98023">
        <ele>413</ele>
        <time>2022-06-18T14:12:11Z</time>
      </trkpt>
      <trkpt lat="47.10996" lon="5.98037">
        <ele>414</ele>
        <time>2022-06-18T14:12:18Z</time>
      </trkpt>
      <trkpt lat="47.11047" lon="5.98079">
        <ele>415</ele>
        <time>2022-06-18T14:12:32Z</time>
      </trkpt>
      <trkpt lat="47.11073" lon="5.98095">
        <ele>416</ele>
        <time>2022-06-18T14:12:38Z</time>
      </trkpt>
      <trkpt lat="47.11092" lon="5.98099">
        <ele>416</ele>
        <time>2022-06-18T14:12:43Z</time>
      </trkpt>
      <trkpt lat="47.11114" lon="5.98097">
        <ele>416</ele>
        <time>2022-06-18T14:12:48Z</time>
      </trkpt>
      <trkpt lat="47.11159" lon="5.98108">
        <ele>415</ele>
        <time>2022-06-18T14:12:58Z</time>
      </trkpt>
      <trkpt lat="47.11191" lon="5.98098">
        <ele>415</ele>
        <time>2022-06-18T14:13:06Z</time>
      </trkpt>
      <trkpt lat="47.1121" lon="5.98099">
        <ele>415</ele>
        <time>2022-06-18T14:13:11Z</time>
      </trkpt>
      <trkpt lat="47.11243" lon="5.98112">
        <ele>415</ele>
        <time>2022-06-18T14:13:19Z</time>
      </trkpt>
      <trkpt lat="47.11288" lon="5.98116">
        <ele>417</ele>
        <time>2022-06-18T14:13:29Z</time>
      </trkpt>
      <trkpt lat="47.11317" lon="5.98126">
        <ele>418</ele>
        <time>2022-06-18T14:13:36Z</time>
      </trkpt>
      <trkpt lat="47.11329" lon="5.98119">
        <ele>419</ele>
        <time>2022-06-18T14:13:39Z</time>
      </trkpt>
      <trkpt lat="47.11344" lon="5.981">
        <ele>419</ele>
        <time>2022-06-18T14:13:44Z</time>
      </trkpt>
      <trkpt lat="47.11368" lon="5.98053">
        <ele>422</ele>
        <time>2022-06-18T14:13:53Z</time>
      </trkpt>
      <trkpt lat="47.11392" lon="5.97973">
        <ele>426</ele>
        <time>2022-06-18T14:14:07Z</time>
      </trkpt>
      <trkpt lat="47.114" lon="5.97932">
        <ele>426</ele>
        <time>2022-06-18T14:14:14Z</time>
      </trkpt>
      <trkpt lat="47.1143" lon="5.97843">
        <ele>425</ele>
        <time>2022-06-18T14:14:29Z</time>
      </trkpt>
      <trkpt lat="47.11467" lon="5.97657">
        <ele>419</ele>
        <time>2022-06-18T14:15:00Z</time>
      </trkpt>
      <trkpt lat="47.115" lon="5.97583">
        <ele>414</ele>
        <time>2022-06-18T14:15:14Z</time>
      </trkpt>
      <trkpt lat="47.11501" lon="5.97533">
        <ele>410</ele>
        <time>2022-06-18T14:15:22Z</time>
      </trkpt>
      <trkpt lat="47.11513" lon="5.97468">
        <ele>405</ele>
        <time>2022-06-18T14:15:33Z</time>
      </trkpt>
      <trkpt lat="47.11513" lon="5.97437">
        <ele>403</ele>
        <time>2022-06-18T14:15:38Z</time>
      </trkpt>
      <trkpt lat="47.11567" lon="5.97391">
        <ele>400</ele>
        <time>2022-06-18T14:15:52Z</time>
      </trkpt>
      <trkpt lat="47.11572" lon="5.97394">
        <ele>400</ele>
        <time>2022-06-18T14:15:54Z</time>
      </trkpt>
      <trkpt lat="47.11575" lon="5.97385">
        <ele>400</ele>
        <time>2022-06-18T14:15:55Z</time>
      </trkpt>
      <trkpt lat="47.11566" lon="5.97306">
        <ele>398</ele>
        <time>2022-06-18T14:16:08Z</time>
      </trkpt>
      <trkpt lat="47.11559" lon="5.97279">
        <ele>397</ele>
        <time>2022-06-18T14:16:13Z</time>
      </trkpt>
      <trkpt lat="47.11459" lon="5.97051">
        <ele>392</ele>
        <time>2022-06-18T14:16:56Z</time>
      </trkpt>
      <trkpt lat="47.11431" lon="5.97016">
        <ele>390</ele>
        <time>2022-06-18T14:17:04Z</time>
      </trkpt>
      <trkpt lat="47.11366" lon="5.9696">
        <ele>389</ele>
        <time>2022-06-18T14:17:22Z</time>
      </trkpt>
      <trkpt lat="47.11388" lon="5.96907">
        <ele>392</ele>
        <time>2022-06-18T14:17:32Z</time>
      </trkpt>
      <trkpt lat="47.11397" lon="5.96853">
        <ele>393</ele>
        <time>2022-06-18T14:17:41Z</time>
      </trkpt>
      <trkpt lat="47.11419" lon="5.96802">
        <ele>394</ele>
        <time>2022-06-18T14:17:50Z</time>
      </trkpt>
      <trkpt lat="47.11454" lon="5.96744">
        <ele>393</ele>
        <time>2022-06-18T14:18:03Z</time>
      </trkpt>
      <trkpt lat="47.11491" lon="5.96697">
        <ele>394</ele>
        <time>2022-06-18T14:18:14Z</time>
      </trkpt>
      <trkpt lat="47.11531" lon="5.96627">
        <ele>393</ele>
        <time>2022-06-18T14:18:28Z</time>
      </trkpt>
      <trkpt lat="47.11571" lon="5.96581">
        <ele>392</ele>
        <time>2022-06-18T14:18:40Z</time>
      </trkpt>
      <trkpt lat="47.11601" lon="5.96534">
        <ele>389</ele>
        <time>2022-06-18T14:18:51Z</time>
      </trkpt>
      <trkpt lat="47.11612" lon="5.96482">
        <ele>384</ele>
        <time>2022-06-18T14:18:59Z</time>
      </trkpt>
      <trkpt lat="47.11605" lon="5.96449">
        <ele>380</ele>
        <time>2022-06-18T14:19:05Z</time>
      </trkpt>
      <trkpt lat="47.11579" lon="5.9642">
        <ele>376</ele>
        <time>2022-06-18T14:19:12Z</time>
      </trkpt>
      <trkpt lat="47.11457" lon="5.96338">
        <ele>362</ele>
        <time>2022-06-18T14:19:44Z</time>
      </trkpt>
      <trkpt lat="47.1142" lon="5.96329">
        <ele>359</ele>
        <time>2022-06-18T14:19:52Z</time>
      </trkpt>
      <trkpt lat="47.11413" lon="5.96318">
        <ele>353</ele>
        <time>2022-06-18T14:19:55Z</time>
      </trkpt>
      <trkpt lat="47.11416" lon="5.9631">
        <ele>350</ele>
        <time>2022-06-18T14:19:56Z</time>
      </trkpt>
      <trkpt lat="47.11431" lon="5.96308">
        <ele>351</ele>
        <time>2022-06-18T14:20:00Z</time>
      </trkpt>
      <trkpt lat="47.11443" lon="5.96292">
        <ele>345</ele>
        <time>2022-06-18T14:20:04Z</time>
      </trkpt>
      <trkpt lat="47.11455" lon="5.96286">
        <ele>344</ele>
        <time>2022-06-18T14:20:07Z</time>
      </trkpt>
      <trkpt lat="47.11501" lon="5.96279">
        <ele>347</ele>
        <time>2022-06-18T14:20:17Z</time>
      </trkpt>
      <trkpt lat="47.11563" lon="5.96235">
        <ele>342</ele>
        <time>2022-06-18T14:20:33Z</time>
      </trkpt>
      <trkpt lat="47.11585" lon="5.96227">
        <ele>342</ele>
        <time>2022-06-18T14:20:39Z</time>
      </trkpt>
      <trkpt lat="47.11613" lon="5.96223">
        <ele>340</ele>
        <time>2022-06-18T14:20:45Z</time>
      </trkpt>
      <trkpt lat="47.11642" lon="5.96209">
        <ele>336</ele>
        <time>2022-06-18T14:20:52Z</time>
      </trkpt>
      <trkpt lat="47.11661" lon="5.96207">
        <ele>335</ele>
        <time>2022-06-18T14:20:57Z</time>
      </trkpt>
      <trkpt lat="47.11664" lon="5.96196">
        <ele>333</ele>
        <time>2022-06-18T14:20:59Z</time>
      </trkpt>
      <trkpt lat="47.11654" lon="5.96165">
        <ele>326</ele>
        <time>2022-06-18T14:21:04Z</time>
      </trkpt>
      <trkpt lat="47.11654" lon="5.96151">
        <ele>322</ele>
        <time>2022-06-18T14:21:06Z</time>
      </trkpt>
      <trkpt lat="47.11665" lon="5.96144">
        <ele>321</ele>
        <time>2022-06-18T14:21:09Z</time>
      </trkpt>
      <trkpt lat="47.11687" lon="5.96153">
        <ele>320</ele>
        <time>2022-06-18T14:21:15Z</time>
      </trkpt>
      <trkpt lat="47.11724" lon="5.96179">
        <ele>320</ele>
        <time>2022-06-18T14:21:24Z</time>
      </trkpt>
      <trkpt lat="47.11754" lon="5.96207">
        <ele>320</ele>
        <time>2022-06-18T14:21:32Z</time>
      </trkpt>
      <trkpt lat="47.11791" lon="5.96253">
        <ele>318</ele>
        <time>2022-06-18T14:21:44Z</time>
      </trkpt>
      <trkpt lat="47.11862" lon="5.96373">
        <ele>321</ele>
        <time>2022-06-18T14:22:09Z</time>
      </trkpt>
      <trkpt lat="47.1193" lon="5.96504">
        <ele>319</ele>
        <time>2022-06-18T14:22:35Z</time>
      </trkpt>
      <trkpt lat="47.11972" lon="5.96571">
        <ele>317</ele>
        <time>2022-06-18T14:22:50Z</time>
      </trkpt>
      <trkpt lat="47.12085" lon="5.96725">
        <ele>314</ele>
        <time>2022-06-18T14:23:26Z</time>
      </trkpt>
      <trkpt lat="47.12176" lon="5.96818">
        <ele>311</ele>
        <time>2022-06-18T14:23:52Z</time>
      </trkpt>
      <trkpt lat="47.12229" lon="5.96855">
        <ele>307</ele>
        <time>2022-06-18T14:24:05Z</time>
      </trkpt>
      <trkpt lat="47.1229" lon="5.96889">
        <ele>305</ele>
        <time>2022-06-18T14:24:20Z</time>
      </trkpt>
      <trkpt lat="47.12438" lon="5.96943">
        <ele>298</ele>
        <time>2022-06-18T14:24:56Z</time>
      </trkpt>
      <trkpt lat="47.12481" lon="5.96955">
        <ele>297</ele>
        <time>2022-06-18T14:25:06Z</time>
      </trkpt>
      <trkpt lat="47.12559" lon="5.96987">
        <ele>297</ele>
        <time>2022-06-18T14:25:25Z</time>
      </trkpt>
      <trkpt lat="47.12614" lon="5.97002">
        <ele>294</ele>
        <time>2022-06-18T14:25:38Z</time>
      </trkpt>
      <trkpt lat="47.12654" lon="5.97008">
        <ele>294</ele>
        <time>2022-06-18T14:25:48Z</time>
      </trkpt>
      <trkpt lat="47.12722" lon="5.97006">
        <ele>295</ele>
        <time>2022-06-18T14:26:04Z</time>
      </trkpt>
      <trkpt lat="47.12929" lon="5.96947">
        <ele>297</ele>
        <time>2022-06-18T14:26:53Z</time>
      </trkpt>
      <trkpt lat="47.13022" lon="5.96934">
        <ele>300</ele>
        <time>2022-06-18T14:27:15Z</time>
      </trkpt>
      <trkpt lat="47.13089" lon="5.9692">
        <ele>298</ele>
        <time>2022-06-18T14:27:30Z</time>
      </trkpt>
      <trkpt lat="47.13152" lon="5.96884">
        <ele>296</ele>
        <time>2022-06-18T14:27:46Z</time>
      </trkpt>
      <trkpt lat="47.13196" lon="5.96835">
        <ele>291</ele>
        <time>2022-06-18T14:27:59Z</time>
      </trkpt>
      <trkpt lat="47.13239" lon="5.96796">
        <ele>290</ele>
        <time>2022-06-18T14:28:11Z</time>
      </trkpt>
      <trkpt lat="47.1328" lon="5.96778">
        <ele>290</ele>
        <time>2022-06-18T14:28:21Z</time>
      </trkpt>
      <trkpt lat="47.13323" lon="5.96773">
        <ele>292</ele>
        <time>2022-06-18T14:28:31Z</time>
      </trkpt>
      <trkpt lat="47.1341" lon="5.96783">
        <ele>296</ele>
        <time>2022-06-18T14:28:51Z</time>
      </trkpt>
      <trkpt lat="47.13497" lon="5.96812">
        <ele>302</ele>
        <time>2022-06-18T14:29:12Z</time>
      </trkpt>
      <trkpt lat="47.13511" lon="5.96806">
        <ele>302</ele>
        <time>2022-06-18T14:29:16Z</time>
      </trkpt>
      <trkpt lat="47.13543" lon="5.96782">
        <ele>301</ele>
        <time>2022-06-18T14:29:24Z</time>
      </trkpt>
      <trkpt lat="47.13557" lon="5.96767">
        <ele>300</ele>
        <time>2022-06-18T14:29:28Z</time>
      </trkpt>
      <trkpt lat="47.13576" lon="5.96735">
        <ele>297</ele>
        <time>2022-06-18T14:29:35Z</time>
      </trkpt>
      <trkpt lat="47.13575" lon="5.96739">
        <ele>297</ele>
        <time>2022-06-18T14:29:35Z</time>
      </trkpt>
      <trkpt lat="47.13565" lon="5.96737">
        <ele>297</ele>
        <time>2022-06-18T14:29:38Z</time>
      </trkpt>
      <trkpt lat="47.13538" lon="5.96743">
        <ele>296</ele>
        <time>2022-06-18T14:29:44Z</time>
      </trkpt>
      <trkpt lat="47.13503" lon="5.96729">
        <ele>293</ele>
        <time>2022-06-18T14:29:53Z</time>
      </trkpt>
      <trkpt lat="47.13478" lon="5.96713">
        <ele>290</ele>
        <time>2022-06-18T14:29:59Z</time>
      </trkpt>
      <trkpt lat="47.13444" lon="5.96683">
        <ele>286</ele>
        <time>2022-06-18T14:30:08Z</time>
      </trkpt>
      <trkpt lat="47.13412" lon="5.96667">
        <ele>284</ele>
        <time>2022-06-18T14:30:16Z</time>
      </trkpt>
      <trkpt lat="47.13395" lon="5.96654">
        <ele>282</ele>
        <time>2022-06-18T14:30:21Z</time>
      </trkpt>
      <trkpt lat="47.13403" lon="5.96605">
        <ele>280</ele>
        <time>2022-06-18T14:30:29Z</time>
      </trkpt>
      <trkpt lat="47.13405" lon="5.96551">
        <ele>277</ele>
        <time>2022-06-18T14:30:37Z</time>
      </trkpt>
      <trkpt lat="47.13419" lon="5.96524">
        <ele>276</ele>
        <time>2022-06-18T14:30:43Z</time>
      </trkpt>
      <trkpt lat="47.1344" lon="5.96462">
        <ele>276</ele>
        <time>2022-06-18T14:30:54Z</time>
      </trkpt>
      <trkpt lat="47.13472" lon="5.96415">
        <ele>276</ele>
        <time>2022-06-18T14:31:04Z</time>
      </trkpt>
      <trkpt lat="47.13493" lon="5.96398">
        <ele>276</ele>
        <time>2022-06-18T14:31:10Z</time>
      </trkpt>
      <trkpt lat="47.13557" lon="5.96312">
        <ele>275</ele>
        <time>2022-06-18T14:31:30Z</time>
      </trkpt>
      <trkpt lat="47.13657" lon="5.96106">
        <ele>274</ele>
        <time>2022-06-18T14:32:10Z</time>
      </trkpt>
      <trkpt lat="47.137" lon="5.96042">
        <ele>275</ele>
        <time>2022-06-18T14:32:25Z</time>
      </trkpt>
      <trkpt lat="47.13734" lon="5.96009">
        <ele>276</ele>
        <time>2022-06-18T14:32:34Z</time>
      </trkpt>
      <trkpt lat="47.13788" lon="5.959">
        <ele>276</ele>
        <time>2022-06-18T14:32:55Z</time>
      </trkpt>
      <trkpt lat="47.13824" lon="5.95875">
        <ele>276</ele>
        <time>2022-06-18T14:33:05Z</time>
      </trkpt>
      <trkpt lat="47.13851" lon="5.95874">
        <ele>276</ele>
        <time>2022-06-18T14:33:11Z</time>
      </trkpt>
      <trkpt lat="47.13873" lon="5.95865">
        <ele>277</ele>
        <time>2022-06-18T14:33:16Z</time>
      </trkpt>
      <trkpt lat="47.13937" lon="5.958">
        <ele>278</ele>
        <time>2022-06-18T14:33:35Z</time>
      </trkpt>
      <trkpt lat="47.13959" lon="5.95786">
        <ele>278</ele>
        <time>2022-06-18T14:33:40Z</time>
      </trkpt>
      <trkpt lat="47.13965" lon="5.9579">
        <ele>278</ele>
        <time>2022-06-18T14:33:42Z</time>
      </trkpt>
      <trkpt lat="47.13974" lon="5.95813">
        <ele>279</ele>
        <time>2022-06-18T14:33:46Z</time>
      </trkpt>
      <trkpt lat="47.13992" lon="5.95889">
        <ele>280</ele>
        <time>2022-06-18T14:33:59Z</time>
      </trkpt>
      <trkpt lat="47.14018" lon="5.95969">
        <ele>284</ele>
        <time>2022-06-18T14:34:13Z</time>
      </trkpt>
      <trkpt lat="47.14029" lon="5.95971">
        <ele>285</ele>
        <time>2022-06-18T14:34:15Z</time>
      </trkpt>
      <trkpt lat="47.14064" lon="5.96">
        <ele>289</ele>
        <time>2022-06-18T14:34:25Z</time>
      </trkpt>
      <trkpt lat="47.14117" lon="5.95991">
        <ele>290</ele>
        <time>2022-06-18T14:34:37Z</time>
      </trkpt>
      <trkpt lat="47.14164" lon="5.95999">
        <ele>292</ele>
        <time>2022-06-18T14:34:48Z</time>
      </trkpt>
      <trkpt lat="47.14191" lon="5.9601">
        <ele>293</ele>
        <time>2022-06-18T14:34:55Z</time>
      </trkpt>
      <trkpt lat="47.14185" lon="5.96094">
        <ele>305</ele>
        <time>2022-06-18T14:35:08Z</time>
      </trkpt>
      <trkpt lat="47.14188" lon="5.96101">
        <ele>306</ele>
        <time>2022-06-18T14:35:10Z</time>
      </trkpt>
      <trkpt lat="47.14224" lon="5.96141">
        <ele>313</ele>
        <time>2022-06-18T14:35:20Z</time>
      </trkpt>
      <trkpt lat="47.14271" lon="5.96205">
        <ele>321</ele>
        <time>2022-06-18T14:35:35Z</time>
      </trkpt>
      <trkpt lat="47.14301" lon="5.96284">
        <ele>330</ele>
        <time>2022-06-18T14:35:49Z</time>
      </trkpt>
      <trkpt lat="47.14319" lon="5.96319">
        <ele>333</ele>
        <time>2022-06-18T14:35:56Z</time>
      </trkpt>
      <trkpt lat="47.14324" lon="5.96339">
        <ele>336</ele>
        <time>2022-06-18T14:36:00Z</time>
      </trkpt>
      <trkpt lat="47.14339" lon="5.96339">
        <ele>333</ele>
        <time>2022-06-18T14:36:03Z</time>
      </trkpt>
      <trkpt lat="47.14351" lon="5.96345">
        <ele>332</ele>
        <time>2022-06-18T14:36:06Z</time>
      </trkpt>
      <trkpt lat="47.14427" lon="5.96495">
        <ele>342</ele>
        <time>2022-06-18T14:36:36Z</time>
      </trkpt>
      <trkpt lat="47.14477" lon="5.96573">
        <ele>346</ele>
        <time>2022-06-18T14:36:53Z</time>
      </trkpt>
      <trkpt lat="47.1449" lon="5.96606">
        <ele>351</ele>
        <time>2022-06-18T14:36:59Z</time>
      </trkpt>
      <trkpt lat="47.14549" lon="5.96656">
        <ele>356</ele>
        <time>2022-06-18T14:37:15Z</time>
      </trkpt>
      <trkpt lat="47.14608" lon="5.96742">
        <ele>365</ele>
        <time>2022-06-18T14:37:34Z</time>
      </trkpt>
      <trkpt lat="47.14646" lon="5.9677">
        <ele>367</ele>
        <time>2022-06-18T14:37:44Z</time>
      </trkpt>
      <trkpt lat="47.14686" lon="5.96812">
        <ele>370</ele>
        <time>2022-06-18T14:37:56Z</time>
      </trkpt>
      <trkpt lat="47.14713" lon="5.96827">
        <ele>372</ele>
        <time>2022-06-18T14:38:02Z</time>
      </trkpt>
      <trkpt lat="47.14733" lon="5.9685">
        <ele>376</ele>
        <time>2022-06-18T14:38:08Z</time>
      </trkpt>
      <trkpt lat="47.14742" lon="5.9688">
        <ele>381</ele>
        <time>2022-06-18T14:38:14Z</time>
      </trkpt>
      <trkpt lat="47.14759" lon="5.96906">
        <ele>387</ele>
        <time>2022-06-18T14:38:19Z</time>
      </trkpt>
      <trkpt lat="47.1479" lon="5.9693">
        <ele>394</ele>
        <time>2022-06-18T14:38:28Z</time>
      </trkpt>
      <trkpt lat="47.14814" lon="5.96956">
        <ele>399</ele>
        <time>2022-06-18T14:38:35Z</time>
      </trkpt>
      <trkpt lat="47.14823" lon="5.96973">
        <ele>401</ele>
        <time>2022-06-18T14:38:38Z</time>
      </trkpt>
      <trkpt lat="47.14828" lon="5.97005">
        <ele>404</ele>
        <time>2022-06-18T14:38:43Z</time>
      </trkpt>
      <trkpt lat="47.14831" lon="5.97008">
        <ele>405</ele>
        <time>2022-06-18T14:38:44Z</time>
      </trkpt>
      <trkpt lat="47.14851" lon="5.97006">
        <ele>406</ele>
        <time>2022-06-18T14:38:49Z</time>
      </trkpt>
      <trkpt lat="47.1486" lon="5.97009">
        <ele>406</ele>
        <time>2022-06-18T14:38:51Z</time>
      </trkpt>
      <trkpt lat="47.14872" lon="5.96999">
        <ele>406</ele>
        <time>2022-06-18T14:38:54Z</time>
      </trkpt>
      <trkpt lat="47.14883" lon="5.96986">
        <ele>405</ele>
        <time>2022-06-18T14:38:57Z</time>
      </trkpt>
      <trkpt lat="47.14888" lon="5.96964">
        <ele>403</ele>
        <time>2022-06-18T14:39:01Z</time>
      </trkpt>
      <trkpt lat="47.14909" lon="5.96915">
        <ele>397</ele>
        <time>2022-06-18T14:39:10Z</time>
      </trkpt>
      <trkpt lat="47.14921" lon="5.96919">
        <ele>398</ele>
        <time>2022-06-18T14:39:13Z</time>
      </trkpt>
      <trkpt lat="47.14934" lon="5.96938">
        <ele>398</ele>
        <time>2022-06-18T14:39:17Z</time>
      </trkpt>
      <trkpt lat="47.14945" lon="5.96939">
        <ele>397</ele>
        <time>2022-06-18T14:39:20Z</time>
      </trkpt>
      <trkpt lat="47.14956" lon="5.96953">
        <ele>397</ele>
        <time>2022-06-18T14:39:23Z</time>
      </trkpt>
      <trkpt lat="47.14982" lon="5.96956">
        <ele>394</ele>
        <time>2022-06-18T14:39:29Z</time>
      </trkpt>
      <trkpt lat="47.14999" lon="5.96968">
        <ele>394</ele>
        <time>2022-06-18T14:39:34Z</time>
      </trkpt>
      <trkpt lat="47.15008" lon="5.96965">
        <ele>393</ele>
        <time>2022-06-18T14:39:36Z</time>
      </trkpt>
      <trkpt lat="47.15025" lon="5.96968">
        <ele>391</ele>
        <time>2022-06-18T14:39:40Z</time>
      </trkpt>
      <trkpt lat="47.15054" lon="5.96989">
        <ele>390</ele>
        <time>2022-06-18T14:39:48Z</time>
      </trkpt>
      <trkpt lat="47.15084" lon="5.97094">
        <ele>395</ele>
        <time>2022-06-18T14:40:06Z</time>
      </trkpt>
      <trkpt lat="47.15131" lon="5.97202">
        <ele>396</ele>
        <time>2022-06-18T14:40:26Z</time>
      </trkpt>
      <trkpt lat="47.15173" lon="5.97237">
        <ele>398</ele>
        <time>2022-06-18T14:40:37Z</time>
      </trkpt>
      <trkpt lat="47.15196" lon="5.97251">
        <ele>399</ele>
        <time>2022-06-18T14:40:43Z</time>
      </trkpt>
      <trkpt lat="47.15232" lon="5.97258">
        <ele>399</ele>
        <time>2022-06-18T14:40:52Z</time>
      </trkpt>
      <trkpt lat="47.15261" lon="5.97256">
        <ele>398</ele>
        <time>2022-06-18T14:40:58Z</time>
      </trkpt>
      <trkpt lat="47.15289" lon="5.97259">
        <ele>399</ele>
        <time>2022-06-18T14:41:05Z</time>
      </trkpt>
      <trkpt lat="47.15316" lon="5.97249">
        <ele>398</ele>
        <time>2022-06-18T14:41:11Z</time>
      </trkpt>
      <trkpt lat="47.15338" lon="5.97232">
        <ele>398</ele>
        <time>2022-06-18T14:41:17Z</time>
      </trkpt>
      <trkpt lat="47.15354" lon="5.97213">
        <ele>399</ele>
        <time>2022-06-18T14:41:22Z</time>
      </trkpt>
      <trkpt lat="47.15377" lon="5.97166">
        <ele>399</ele>
        <time>2022-06-18T14:41:31Z</time>
      </trkpt>
      <trkpt lat="47.1541" lon="5.9712">
        <ele>402</ele>
        <time>2022-06-18T14:41:42Z</time>
      </trkpt>
      <trkpt lat="47.15448" lon="5.97075">
        <ele>401</ele>
        <time>2022-06-18T14:41:53Z</time>
      </trkpt>
      <trkpt lat="47.15485" lon="5.9704">
        <ele>401</ele>
        <time>2022-06-18T14:42:03Z</time>
      </trkpt>
      <trkpt lat="47.15501" lon="5.97014">
        <ele>400</ele>
        <time>2022-06-18T14:42:09Z</time>
      </trkpt>
      <trkpt lat="47.15504" lon="5.96993">
        <ele>399</ele>
        <time>2022-06-18T14:42:12Z</time>
      </trkpt>
      <trkpt lat="47.15511" lon="5.9698">
        <ele>398</ele>
        <time>2022-06-18T14:42:15Z</time>
      </trkpt>
      <trkpt lat="47.15499" lon="5.96951">
        <ele>398</ele>
        <time>2022-06-18T14:42:20Z</time>
      </trkpt>
      <trkpt lat="47.15484" lon="5.96871">
        <ele>397</ele>
        <time>2022-06-18T14:42:34Z</time>
      </trkpt>
      <trkpt lat="47.15485" lon="5.96845">
        <ele>397</ele>
        <time>2022-06-18T14:42:38Z</time>
      </trkpt>
      <trkpt lat="47.15479" lon="5.96803">
        <ele>396</ele>
        <time>2022-06-18T14:42:45Z</time>
      </trkpt>
      <trkpt lat="47.15481" lon="5.96749">
        <ele>395</ele>
        <time>2022-06-18T14:42:53Z</time>
      </trkpt>
      <trkpt lat="47.15475" lon="5.96723">
        <ele>395</ele>
        <time>2022-06-18T14:42:58Z</time>
      </trkpt>
      <trkpt lat="47.15479" lon="5.96699">
        <ele>395</ele>
        <time>2022-06-18T14:43:01Z</time>
      </trkpt>
      <trkpt lat="47.15528" lon="5.96673">
        <ele>392</ele>
        <time>2022-06-18T14:43:14Z</time>
      </trkpt>
      <trkpt lat="47.15538" lon="5.96676">
        <ele>391</ele>
        <time>2022-06-18T14:43:16Z</time>
      </trkpt>
      <trkpt lat="47.15561" lon="5.96695">
        <ele>390</ele>
        <time>2022-06-18T14:43:22Z</time>
      </trkpt>
      <trkpt lat="47.15589" lon="5.96701">
        <ele>388</ele>
        <time>2022-06-18T14:43:29Z</time>
      </trkpt>
      <trkpt lat="47.15648" lon="5.96701">
        <ele>384</ele>
        <time>2022-06-18T14:43:43Z</time>
      </trkpt>
      <trkpt lat="47.15675" lon="5.96718">
        <ele>379</ele>
        <time>2022-06-18T14:43:49Z</time>
      </trkpt>
      <trkpt lat="47.15688" lon="5.96745">
        <ele>375</ele>
        <time>2022-06-18T14:43:55Z</time>
      </trkpt>
      <trkpt lat="47.15693" lon="5.96766">
        <ele>375</ele>
        <time>2022-06-18T14:43:58Z</time>
      </trkpt>
      <trkpt lat="47.15702" lon="5.96779">
        <ele>373</ele>
        <time>2022-06-18T14:44:01Z</time>
      </trkpt>
      <trkpt lat="47.15721" lon="5.96794">
        <ele>370</ele>
        <time>2022-06-18T14:44:06Z</time>
      </trkpt>
      <trkpt lat="47.15745" lon="5.96836">
        <ele>369</ele>
        <time>2022-06-18T14:44:15Z</time>
      </trkpt>
      <trkpt lat="47.1576" lon="5.96848">
        <ele>366</ele>
        <time>2022-06-18T14:44:19Z</time>
      </trkpt>
      <trkpt lat="47.15781" lon="5.96846">
        <ele>362</ele>
        <time>2022-06-18T14:44:24Z</time>
      </trkpt>
      <trkpt lat="47.15793" lon="5.96837">
        <ele>359</ele>
        <time>2022-06-18T14:44:27Z</time>
      </trkpt>
      <trkpt lat="47.15798" lon="5.96819">
        <ele>357</ele>
        <time>2022-06-18T14:44:30Z</time>
      </trkpt>
      <trkpt lat="47.15799" lon="5.968">
        <ele>356</ele>
        <time>2022-06-18T14:44:33Z</time>
      </trkpt>
      <trkpt lat="47.15792" lon="5.96775">
        <ele>356</ele>
        <time>2022-06-18T14:44:37Z</time>
      </trkpt>
      <trkpt lat="47.15795" lon="5.96761">
        <ele>354</ele>
        <time>2022-06-18T14:44:40Z</time>
      </trkpt>
      <trkpt lat="47.15827" lon="5.96716">
        <ele>347</ele>
        <time>2022-06-18T14:44:50Z</time>
      </trkpt>
      <trkpt lat="47.15847" lon="5.9671">
        <ele>345</ele>
        <time>2022-06-18T14:44:55Z</time>
      </trkpt>
      <trkpt lat="47.15872" lon="5.96713">
        <ele>343</ele>
        <time>2022-06-18T14:45:01Z</time>
      </trkpt>
      <trkpt lat="47.15892" lon="5.96705">
        <ele>342</ele>
        <time>2022-06-18T14:45:06Z</time>
      </trkpt>
      <trkpt lat="47.15924" lon="5.96683">
        <ele>343</ele>
        <time>2022-06-18T14:45:14Z</time>
      </trkpt>
      <trkpt lat="47.15971" lon="5.96676">
        <ele>346</ele>
        <time>2022-06-18T14:45:25Z</time>
      </trkpt>
      <trkpt lat="47.15975" lon="5.96664">
        <ele>348</ele>
        <time>2022-06-18T14:45:27Z</time>
      </trkpt>
      <trkpt lat="47.15971" lon="5.96641">
        <ele>349</ele>
        <time>2022-06-18T14:45:31Z</time>
      </trkpt>
      <trkpt lat="47.15974" lon="5.9661">
        <ele>351</ele>
        <time>2022-06-18T14:45:36Z</time>
      </trkpt>
      <trkpt lat="47.15982" lon="5.96558">
        <ele>353</ele>
        <time>2022-06-18T14:45:44Z</time>
      </trkpt>
      <trkpt lat="47.15988" lon="5.96545">
        <ele>354</ele>
        <time>2022-06-18T14:45:47Z</time>
      </trkpt>
      <trkpt lat="47.15997" lon="5.96546">
        <ele>355</ele>
        <time>2022-06-18T14:45:49Z</time>
      </trkpt>
      <trkpt lat="47.16029" lon="5.96583">
        <ele>355</ele>
        <time>2022-06-18T14:45:58Z</time>
      </trkpt>
      <trkpt lat="47.16095" lon="5.96646">
        <ele>352</ele>
        <time>2022-06-18T14:46:17Z</time>
      </trkpt>
      <trkpt lat="47.16112" lon="5.96652">
        <ele>353</ele>
        <time>2022-06-18T14:46:21Z</time>
      </trkpt>
      <trkpt lat="47.16177" lon="5.96655">
        <ele>358</ele>
        <time>2022-06-18T14:46:36Z</time>
      </trkpt>
      <trkpt lat="47.16186" lon="5.96651">
        <ele>358</ele>
        <time>2022-06-18T14:46:38Z</time>
      </trkpt>
      <trkpt lat="47.16202" lon="5.96634">
        <ele>360</ele>
        <time>2022-06-18T14:46:43Z</time>
      </trkpt>
      <trkpt lat="47.16247" lon="5.96545">
        <ele>364</ele>
        <time>2022-06-18T14:47:00Z</time>
      </trkpt>
      <trkpt lat="47.16264" lon="5.9649">
        <ele>367</ele>
        <time>2022-06-18T14:47:10Z</time>
      </trkpt>
      <trkpt lat="47.16269" lon="5.96448">
        <ele>374</ele>
        <time>2022-06-18T14:47:17Z</time>
      </trkpt>
      <trkpt lat="47.16278" lon="5.96427">
        <ele>377</ele>
        <time>2022-06-18T14:47:21Z</time>
      </trkpt>
      <trkpt lat="47.16285" lon="5.9642">
        <ele>378</ele>
        <time>2022-06-18T14:47:23Z</time>
      </trkpt>
      <trkpt lat="47.16294" lon="5.96416">
        <ele>379</ele>
        <time>2022-06-18T14:47:25Z</time>
      </trkpt>
      <trkpt lat="47.16349" lon="5.96418">
        <ele>380</ele>
        <time>2022-06-18T14:47:38Z</time>
      </trkpt>
      <trkpt lat="47.16395" lon="5.96432">
        <ele>383</ele>
        <time>2022-06-18T14:47:49Z</time>
      </trkpt>
      <trkpt lat="47.16438" lon="5.96436">
        <ele>386</ele>
        <time>2022-06-18T14:47:59Z</time>
      </trkpt>
      <trkpt lat="47.16477" lon="5.96462">
        <ele>385</ele>
        <time>2022-06-18T14:48:09Z</time>
      </trkpt>
      <trkpt lat="47.16488" lon="5.96456">
        <ele>387</ele>
        <time>2022-06-18T14:48:11Z</time>
      </trkpt>
      <trkpt lat="47.16521" lon="5.96377">
        <ele>401</ele>
        <time>2022-06-18T14:48:26Z</time>
      </trkpt>
      <trkpt lat="47.16523" lon="5.96359">
        <ele>403</ele>
        <time>2022-06-18T14:48:29Z</time>
      </trkpt>
      <trkpt lat="47.16518" lon="5.96341">
        <ele>405</ele>
        <time>2022-06-18T14:48:32Z</time>
      </trkpt>
      <trkpt lat="47.16484" lon="5.96292">
        <ele>406</ele>
        <time>2022-06-18T14:48:43Z</time>
      </trkpt>
      <trkpt lat="47.16478" lon="5.96274">
        <ele>407</ele>
        <time>2022-06-18T14:48:46Z</time>
      </trkpt>
      <trkpt lat="47.16479" lon="5.96249">
        <ele>407</ele>
        <time>2022-06-18T14:48:50Z</time>
      </trkpt>
      <trkpt lat="47.16492" lon="5.96217">
        <ele>403</ele>
        <time>2022-06-18T14:48:56Z</time>
      </trkpt>
      <trkpt lat="47.165" lon="5.96208">
        <ele>401</ele>
        <time>2022-06-18T14:48:59Z</time>
      </trkpt>
      <trkpt lat="47.16518" lon="5.96202">
        <ele>400</ele>
        <time>2022-06-18T14:49:03Z</time>
      </trkpt>
      <trkpt lat="47.16571" lon="5.96211">
        <ele>398</ele>
        <time>2022-06-18T14:49:15Z</time>
      </trkpt>
      <trkpt lat="47.16579" lon="5.96208">
        <ele>397</ele>
        <time>2022-06-18T14:49:17Z</time>
      </trkpt>
      <trkpt lat="47.1661" lon="5.96187">
        <ele>393</ele>
        <time>2022-06-18T14:49:25Z</time>
      </trkpt>
      <trkpt lat="47.16639" lon="5.96149">
        <ele>388</ele>
        <time>2022-06-18T14:49:34Z</time>
      </trkpt>
      <trkpt lat="47.16657" lon="5.9614">
        <ele>386</ele>
        <time>2022-06-18T14:49:39Z</time>
      </trkpt>
      <trkpt lat="47.16709" lon="5.9613">
        <ele>384</ele>
        <time>2022-06-18T14:49:51Z</time>
      </trkpt>
      <trkpt lat="47.16719" lon="5.96123">
        <ele>383</ele>
        <time>2022-06-18T14:49:54Z</time>
      </trkpt>
      <trkpt lat="47.16726" lon="5.96111">
        <ele>382</ele>
        <time>2022-06-18T14:49:56Z</time>
      </trkpt>
      <trkpt lat="47.16748" lon="5.96052">
        <ele>377</ele>
        <time>2022-06-18T14:50:07Z</time>
      </trkpt>
      <trkpt lat="47.16753" lon="5.95999">
        <ele>375</ele>
        <time>2022-06-18T14:50:15Z</time>
      </trkpt>
      <trkpt lat="47.16748" lon="5.95964">
        <ele>375</ele>
        <time>2022-06-18T14:50:21Z</time>
      </trkpt>
      <trkpt lat="47.16715" lon="5.95827">
        <ele>370</ele>
        <time>2022-06-18T14:50:44Z</time>
      </trkpt>
      <trkpt lat="47.16686" lon="5.95746">
        <ele>369</ele>
        <time>2022-06-18T14:50:59Z</time>
      </trkpt>
      <trkpt lat="47.16694" lon="5.95701">
        <ele>368</ele>
        <time>2022-06-18T14:51:06Z</time>
      </trkpt>
      <trkpt lat="47.16608" lon="5.95635">
        <ele>372</ele>
        <time>2022-06-18T14:51:29Z</time>
      </trkpt>
      <trkpt lat="47.16495" lon="5.95536">
        <ele>373</ele>
        <time>2022-06-18T14:51:59Z</time>
      </trkpt>
      <trkpt lat="47.16475" lon="5.95522">
        <ele>374</ele>
        <time>2022-06-18T14:52:05Z</time>
      </trkpt>
      <trkpt lat="47.1643" lon="5.955">
        <ele>377</ele>
        <time>2022-06-18T14:52:16Z</time>
      </trkpt>
      <trkpt lat="47.16387" lon="5.95431">
        <ele>388</ele>
        <time>2022-06-18T14:52:30Z</time>
      </trkpt>
      <trkpt lat="47.16261" lon="5.95189">
        <ele>401</ele>
        <time>2022-06-18T14:53:19Z</time>
      </trkpt>
      <trkpt lat="47.1624" lon="5.95139">
        <ele>402</ele>
        <time>2022-06-18T14:53:28Z</time>
      </trkpt>
      <trkpt lat="47.16211" lon="5.95091">
        <ele>403</ele>
        <time>2022-06-18T14:53:38Z</time>
      </trkpt>
      <trkpt lat="47.16188" lon="5.95064">
        <ele>403</ele>
        <time>2022-06-18T14:53:45Z</time>
      </trkpt>
      <trkpt lat="47.16167" lon="5.95025">
        <ele>405</ele>
        <time>2022-06-18T14:53:53Z</time>
      </trkpt>
      <trkpt lat="47.16131" lon="5.94983">
        <ele>402</ele>
        <time>2022-06-18T14:54:04Z</time>
      </trkpt>
      <trkpt lat="47.16117" lon="5.9496">
        <ele>401</ele>
        <time>2022-06-18T14:54:09Z</time>
      </trkpt>
      <trkpt lat="47.16091" lon="5.9488">
        <ele>404</ele>
        <time>2022-06-18T14:54:23Z</time>
      </trkpt>
      <trkpt lat="47.16041" lon="5.94806">
        <ele>403</ele>
        <time>2022-06-18T14:54:39Z</time>
      </trkpt>
      <trkpt lat="47.15991" lon="5.94705">
        <ele>406</ele>
        <time>2022-06-18T14:54:59Z</time>
      </trkpt>
      <trkpt lat="47.15988" lon="5.94689">
        <ele>406</ele>
        <time>2022-06-18T14:55:02Z</time>
      </trkpt>
      <trkpt lat="47.15968" lon="5.94653">
        <ele>405</ele>
        <time>2022-06-18T14:55:09Z</time>
      </trkpt>
      <trkpt lat="47.1595" lon="5.94606">
        <ele>403</ele>
        <time>2022-06-18T14:55:18Z</time>
      </trkpt>
      <trkpt lat="47.15928" lon="5.94533">
        <ele>404</ele>
        <time>2022-06-18T14:55:31Z</time>
      </trkpt>
      <trkpt lat="47.15928" lon="5.94487">
        <ele>404</ele>
        <time>2022-06-18T14:55:38Z</time>
      </trkpt>
      <trkpt lat="47.15915" lon="5.94424">
        <ele>406</ele>
        <time>2022-06-18T14:55:48Z</time>
      </trkpt>
      <trkpt lat="47.15911" lon="5.94382">
        <ele>402</ele>
        <time>2022-06-18T14:55:55Z</time>
      </trkpt>
      <trkpt lat="47.15902" lon="5.94346">
        <ele>400</ele>
        <time>2022-06-18T14:56:01Z</time>
      </trkpt>
      <trkpt lat="47.15889" lon="5.94317">
        <ele>399</ele>
        <time>2022-06-18T14:56:07Z</time>
      </trkpt>
      <trkpt lat="47.15878" lon="5.94302">
        <ele>399</ele>
        <time>2022-06-18T14:56:10Z</time>
      </trkpt>
      <trkpt lat="47.15852" lon="5.94288">
        <ele>404</ele>
        <time>2022-06-18T14:56:17Z</time>
      </trkpt>
      <trkpt lat="47.15813" lon="5.94228">
        <ele>407</ele>
        <time>2022-06-18T14:56:30Z</time>
      </trkpt>
      <trkpt lat="47.1578" lon="5.9419">
        <ele>409</ele>
        <time>2022-06-18T14:56:40Z</time>
      </trkpt>
      <trkpt lat="47.15769" lon="5.94166">
        <ele>411</ele>
        <time>2022-06-18T14:56:44Z</time>
      </trkpt>
      <trkpt lat="47.15766" lon="5.94138">
        <ele>409</ele>
        <time>2022-06-18T14:56:49Z</time>
      </trkpt>
      <trkpt lat="47.15743" lon="5.94101">
        <ele>412</ele>
        <time>2022-06-18T14:56:57Z</time>
      </trkpt>
      <trkpt lat="47.15706" lon="5.94073">
        <ele>415</ele>
        <time>2022-06-18T14:57:06Z</time>
      </trkpt>
      <trkpt lat="47.15688" lon="5.94042">
        <ele>415</ele>
        <time>2022-06-18T14:57:13Z</time>
      </trkpt>
      <trkpt lat="47.15651" lon="5.94006">
        <ele>419</ele>
        <time>2022-06-18T14:57:23Z</time>
      </trkpt>
      <trkpt lat="47.15564" lon="5.939">
        <ele>425</ele>
        <time>2022-06-18T14:57:50Z</time>
      </trkpt>
      <trkpt lat="47.15542" lon="5.93882">
        <ele>425</ele>
        <time>2022-06-18T14:57:55Z</time>
      </trkpt>
      <trkpt lat="47.15462" lon="5.93793">
        <ele>425</ele>
        <time>2022-06-18T14:58:19Z</time>
      </trkpt>
      <trkpt lat="47.15392" lon="5.93726">
        <ele>425</ele>
        <time>2022-06-18T14:58:38Z</time>
      </trkpt>
      <trkpt lat="47.15345" lon="5.93671">
        <ele>428</ele>
        <time>2022-06-18T14:58:52Z</time>
      </trkpt>
      <trkpt lat="47.15274" lon="5.93617">
        <ele>424</ele>
        <time>2022-06-18T14:59:11Z</time>
      </trkpt>
      <trkpt lat="47.1525" lon="5.93591">
        <ele>427</ele>
        <time>2022-06-18T14:59:18Z</time>
      </trkpt>
      <trkpt lat="47.15212" lon="5.93563">
        <ele>425</ele>
        <time>2022-06-18T14:59:28Z</time>
      </trkpt>
      <trkpt lat="47.15148" lon="5.93506">
        <ele>432</ele>
        <time>2022-06-18T14:59:45Z</time>
      </trkpt>
      <trkpt lat="47.15107" lon="5.9349">
        <ele>433</ele>
        <time>2022-06-18T14:59:55Z</time>
      </trkpt>
      <trkpt lat="47.15032" lon="5.93438">
        <ele>438</ele>
        <time>2022-06-18T15:00:15Z</time>
      </trkpt>
      <trkpt lat="47.15009" lon="5.93409">
        <ele>443</ele>
        <time>2022-06-18T15:00:22Z</time>
      </trkpt>
      <trkpt lat="47.1494" lon="5.93349">
        <ele>443</ele>
        <time>2022-06-18T15:00:41Z</time>
      </trkpt>
      <trkpt lat="47.14889" lon="5.93311">
        <ele>442</ele>
        <time>2022-06-18T15:00:54Z</time>
      </trkpt>
      <trkpt lat="47.14881" lon="5.93308">
        <ele>441</ele>
        <time>2022-06-18T15:00:56Z</time>
      </trkpt>
      <trkpt lat="47.1487" lon="5.9331">
        <ele>440</ele>
        <time>2022-06-18T15:00:58Z</time>
      </trkpt>
      <trkpt lat="47.14857" lon="5.93305">
        <ele>440</ele>
        <time>2022-06-18T15:01:02Z</time>
      </trkpt>
      <trkpt lat="47.14802" lon="5.93252">
        <ele>445</ele>
        <time>2022-06-18T15:01:17Z</time>
      </trkpt>
      <trkpt lat="47.14752" lon="5.93176">
        <ele>445</ele>
        <time>2022-06-18T15:01:34Z</time>
      </trkpt>
      <trkpt lat="47.14758" lon="5.93166">
        <ele>445</ele>
        <time>2022-06-18T15:01:36Z</time>
      </trkpt>
      <trkpt lat="47.14773" lon="5.9316">
        <ele>441</ele>
        <time>2022-06-18T15:01:39Z</time>
      </trkpt>
      <trkpt lat="47.14817" lon="5.93164">
        <ele>436</ele>
        <time>2022-06-18T15:01:50Z</time>
      </trkpt>
      <trkpt lat="47.14876" lon="5.93178">
        <ele>428</ele>
        <time>2022-06-18T15:02:04Z</time>
      </trkpt>
      <trkpt lat="47.14924" lon="5.93172">
        <ele>417</ele>
        <time>2022-06-18T15:02:15Z</time>
      </trkpt>
      <trkpt lat="47.14944" lon="5.93164">
        <ele>412</ele>
        <time>2022-06-18T15:02:20Z</time>
      </trkpt>
      <trkpt lat="47.15015" lon="5.93109">
        <ele>395</ele>
        <time>2022-06-18T15:02:39Z</time>
      </trkpt>
      <trkpt lat="47.15029" lon="5.93111">
        <ele>394</ele>
        <time>2022-06-18T15:02:42Z</time>
      </trkpt>
      <trkpt lat="47.15087" lon="5.93135">
        <ele>392</ele>
        <time>2022-06-18T15:02:56Z</time>
      </trkpt>
      <trkpt lat="47.15138" lon="5.93165">
        <ele>387</ele>
        <time>2022-06-18T15:03:09Z</time>
      </trkpt>
      <trkpt lat="47.15141" lon="5.93189">
        <ele>388</ele>
        <time>2022-06-18T15:03:13Z</time>
      </trkpt>
      <trkpt lat="47.1515" lon="5.93196">
        <ele>388</ele>
        <time>2022-06-18T15:03:15Z</time>
      </trkpt>
      <trkpt lat="47.15186" lon="5.93244">
        <ele>386</ele>
        <time>2022-06-18T15:03:26Z</time>
      </trkpt>
      <trkpt lat="47.15234" lon="5.93314">
        <ele>384</ele>
        <time>2022-06-18T15:03:42Z</time>
      </trkpt>
      <trkpt lat="47.15249" lon="5.9335">
        <ele>384</ele>
        <time>2022-06-18T15:03:49Z</time>
      </trkpt>
      <trkpt lat="47.15258" lon="5.93414">
        <ele>390</ele>
        <time>2022-06-18T15:03:59Z</time>
      </trkpt>
      <trkpt lat="47.1527" lon="5.93439">
        <ele>391</ele>
        <time>2022-06-18T15:04:04Z</time>
      </trkpt>
      <trkpt lat="47.15279" lon="5.93448">
        <ele>391</ele>
        <time>2022-06-18T15:04:07Z</time>
      </trkpt>
      <trkpt lat="47.15547" lon="5.93583">
        <ele>366</ele>
        <time>2022-06-18T15:05:13Z</time>
      </trkpt>
      <trkpt lat="47.15723" lon="5.93686">
        <ele>354</ele>
        <time>2022-06-18T15:05:57Z</time>
      </trkpt>
      <trkpt lat="47.15754" lon="5.93714">
        <ele>353</ele>
        <time>2022-06-18T15:06:05Z</time>
      </trkpt>
      <trkpt lat="47.15832" lon="5.93807">
        <ele>346</ele>
        <time>2022-06-18T15:06:29Z</time>
      </trkpt>
      <trkpt lat="47.15845" lon="5.93793">
        <ele>342</ele>
        <time>2022-06-18T15:06:33Z</time>
      </trkpt>
      <trkpt lat="47.15849" lon="5.93764">
        <ele>340</ele>
        <time>2022-06-18T15:06:37Z</time>
      </trkpt>
      <trkpt lat="47.1583" lon="5.93663">
        <ele>337</ele>
        <time>2022-06-18T15:06:54Z</time>
      </trkpt>
      <trkpt lat="47.15828" lon="5.9359">
        <ele>328</ele>
        <time>2022-06-18T15:07:06Z</time>
      </trkpt>
      <trkpt lat="47.15832" lon="5.93503">
        <ele>319</ele>
        <time>2022-06-18T15:07:19Z</time>
      </trkpt>
      <trkpt lat="47.15827" lon="5.93416">
        <ele>310</ele>
        <time>2022-06-18T15:07:33Z</time>
      </trkpt>
      <trkpt lat="47.15802" lon="5.93262">
        <ele>305</ele>
        <time>2022-06-18T15:07:58Z</time>
      </trkpt>
      <trkpt lat="47.158" lon="5.93206">
        <ele>305</ele>
        <time>2022-06-18T15:08:07Z</time>
      </trkpt>
      <trkpt lat="47.15809" lon="5.9314">
        <ele>306</ele>
        <time>2022-06-18T15:08:18Z</time>
      </trkpt>
      <trkpt lat="47.15818" lon="5.93111">
        <ele>306</ele>
        <time>2022-06-18T15:08:23Z</time>
      </trkpt>
      <trkpt lat="47.15836" lon="5.93074">
        <ele>307</ele>
        <time>2022-06-18T15:08:30Z</time>
      </trkpt>
      <trkpt lat="47.15838" lon="5.93021">
        <ele>310</ele>
        <time>2022-06-18T15:08:39Z</time>
      </trkpt>
      <trkpt lat="47.15853" lon="5.92986">
        <ele>312</ele>
        <time>2022-06-18T15:08:45Z</time>
      </trkpt>
      <trkpt lat="47.15873" lon="5.92953">
        <ele>314</ele>
        <time>2022-06-18T15:08:52Z</time>
      </trkpt>
      <trkpt lat="47.15883" lon="5.92949">
        <ele>314</ele>
        <time>2022-06-18T15:08:55Z</time>
      </trkpt>
      <trkpt lat="47.15926" lon="5.9302">
        <ele>311</ele>
        <time>2022-06-18T15:09:10Z</time>
      </trkpt>
      <trkpt lat="47.1598" lon="5.93076">
        <ele>309</ele>
        <time>2022-06-18T15:09:25Z</time>
      </trkpt>
      <trkpt lat="47.1601" lon="5.93118">
        <ele>307</ele>
        <time>2022-06-18T15:09:35Z</time>
      </trkpt>
      <trkpt lat="47.16061" lon="5.93085">
        <ele>309</ele>
        <time>2022-06-18T15:09:48Z</time>
      </trkpt>
      <trkpt lat="47.16098" lon="5.93049">
        <ele>317</ele>
        <time>2022-06-18T15:09:58Z</time>
      </trkpt>
      <trkpt lat="47.16187" lon="5.92993">
        <ele>331</ele>
        <time>2022-06-18T15:10:21Z</time>
      </trkpt>
      <trkpt lat="47.16219" lon="5.92954">
        <ele>332</ele>
        <time>2022-06-18T15:10:31Z</time>
      </trkpt>
      <trkpt lat="47.16282" lon="5.92907">
        <ele>326</ele>
        <time>2022-06-18T15:10:47Z</time>
      </trkpt>
      <trkpt lat="47.16308" lon="5.92881">
        <ele>321</ele>
        <time>2022-06-18T15:10:55Z</time>
      </trkpt>
      <trkpt lat="47.16309" lon="5.92876">
        <ele>320</ele>
        <time>2022-06-18T15:10:55Z</time>
      </trkpt>
      <trkpt lat="47.16298" lon="5.92877">
        <ele>321</ele>
        <time>2022-06-18T15:10:58Z</time>
      </trkpt>
      <trkpt lat="47.16292" lon="5.92873">
        <ele>321</ele>
        <time>2022-06-18T15:10:59Z</time>
      </trkpt>
      <trkpt lat="47.16294" lon="5.92836">
        <ele>317</ele>
        <time>2022-06-18T15:11:05Z</time>
      </trkpt>
      <trkpt lat="47.16275" lon="5.92804">
        <ele>316</ele>
        <time>2022-06-18T15:11:12Z</time>
      </trkpt>
      <trkpt lat="47.16283" lon="5.92777">
        <ele>312</ele>
        <time>2022-06-18T15:11:17Z</time>
      </trkpt>
      <trkpt lat="47.16295" lon="5.92763">
        <ele>309</ele>
        <time>2022-06-18T15:11:20Z</time>
      </trkpt>
      <trkpt lat="47.16315" lon="5.92761">
        <ele>305</ele>
        <time>2022-06-18T15:11:25Z</time>
      </trkpt>
      <trkpt lat="47.16344" lon="5.92774">
        <ele>301</ele>
        <time>2022-06-18T15:11:32Z</time>
      </trkpt>
      <trkpt lat="47.16398" lon="5.92806">
        <ele>297</ele>
        <time>2022-06-18T15:11:46Z</time>
      </trkpt>
      <trkpt lat="47.16421" lon="5.92825">
        <ele>296</ele>
        <time>2022-06-18T15:11:52Z</time>
      </trkpt>
      <trkpt lat="47.1648" lon="5.92856">
        <ele>286</ele>
        <time>2022-06-18T15:12:07Z</time>
      </trkpt>
      <trkpt lat="47.16493" lon="5.9286">
        <ele>283</ele>
        <time>2022-06-18T15:12:10Z</time>
      </trkpt>
      <trkpt lat="47.16523" lon="5.92859">
        <ele>277</ele>
        <time>2022-06-18T15:12:17Z</time>
      </trkpt>
      <trkpt lat="47.16554" lon="5.92845">
        <ele>269</ele>
        <time>2022-06-18T15:12:24Z</time>
      </trkpt>
      <trkpt lat="47.16565" lon="5.92832">
        <ele>265</ele>
        <time>2022-06-18T15:12:27Z</time>
      </trkpt>
      <trkpt lat="47.16581" lon="5.92776">
        <ele>255</ele>
        <time>2022-06-18T15:12:37Z</time>
      </trkpt>
      <trkpt lat="47.16585" lon="5.92705">
        <ele>251</ele>
        <time>2022-06-18T15:12:48Z</time>
      </trkpt>
      <trkpt lat="47.16613" lon="5.92657">
        <ele>250</ele>
        <time>2022-06-18T15:12:58Z</time>
      </trkpt>
      <trkpt lat="47.16614" lon="5.92647">
        <ele>250</ele>
        <time>2022-06-18T15:13:00Z</time>
      </trkpt>
      <trkpt lat="47.16591" lon="5.92616">
        <ele>254</ele>
        <time>2022-06-18T15:13:07Z</time>
      </trkpt>
      <trkpt lat="47.16569" lon="5.92559">
        <ele>258</ele>
        <time>2022-06-18T15:13:18Z</time>
      </trkpt>
      <trkpt lat="47.16536" lon="5.92496">
        <ele>256</ele>
        <time>2022-06-18T15:13:30Z</time>
      </trkpt>
      <trkpt lat="47.1651" lon="5.92479">
        <ele>254</ele>
        <time>2022-06-18T15:13:37Z</time>
      </trkpt>
      <trkpt lat="47.16497" lon="5.92462">
        <ele>254</ele>
        <time>2022-06-18T15:13:41Z</time>
      </trkpt>
      <trkpt lat="47.16475" lon="5.92443">
        <ele>254</ele>
        <time>2022-06-18T15:13:47Z</time>
      </trkpt>
      <trkpt lat="47.16371" lon="5.92373">
        <ele>258</ele>
        <time>2022-06-18T15:14:14Z</time>
      </trkpt>
      <trkpt lat="47.16344" lon="5.9235">
        <ele>260</ele>
        <time>2022-06-18T15:14:21Z</time>
      </trkpt>
      <trkpt lat="47.16315" lon="5.92335">
        <ele>260</ele>
        <time>2022-06-18T15:14:28Z</time>
      </trkpt>
      <trkpt lat="47.16269" lon="5.923">
        <ele>261</ele>
        <time>2022-06-18T15:14:40Z</time>
      </trkpt>
      <trkpt lat="47.16211" lon="5.92241">
        <ele>264</ele>
        <time>2022-06-18T15:14:57Z</time>
      </trkpt>
      <trkpt lat="47.16168" lon="5.92183">
        <ele>267</ele>
        <time>2022-06-18T15:15:10Z</time>
      </trkpt>
      <trkpt lat="47.16148" lon="5.92163">
        <ele>269</ele>
        <time>2022-06-18T15:15:16Z</time>
      </trkpt>
      <trkpt lat="47.16116" lon="5.9214">
        <ele>271</ele>
        <time>2022-06-18T15:15:24Z</time>
      </trkpt>
      <trkpt lat="47.16106" lon="5.92101">
        <ele>272</ele>
        <time>2022-06-18T15:15:31Z</time>
      </trkpt>
      <trkpt lat="47.16097" lon="5.92089">
        <ele>273</ele>
        <time>2022-06-18T15:15:34Z</time>
      </trkpt>
      <trkpt lat="47.1609" lon="5.92088">
        <ele>273</ele>
        <time>2022-06-18T15:15:35Z</time>
      </trkpt>
      <trkpt lat="47.16084" lon="5.92093">
        <ele>273</ele>
        <time>2022-06-18T15:15:37Z</time>
      </trkpt>
      <trkpt lat="47.16078" lon="5.9209">
        <ele>273</ele>
        <time>2022-06-18T15:15:39Z</time>
      </trkpt>
      <trkpt lat="47.16049" lon="5.9206">
        <ele>276</ele>
        <time>2022-06-18T15:15:47Z</time>
      </trkpt>
      <trkpt lat="47.15944" lon="5.91982">
        <ele>283</ele>
        <time>2022-06-18T15:16:14Z</time>
      </trkpt>
      <trkpt lat="47.15911" lon="5.91933">
        <ele>284</ele>
        <time>2022-06-18T15:16:25Z</time>
      </trkpt>
      <trkpt lat="47.15897" lon="5.91899">
        <ele>285</ele>
        <time>2022-06-18T15:16:32Z</time>
      </trkpt>
      <trkpt lat="47.15881" lon="5.91881">
        <ele>286</ele>
        <time>2022-06-18T15:16:36Z</time>
      </trkpt>
      <trkpt lat="47.15867" lon="5.91871">
        <ele>285</ele>
        <time>2022-06-18T15:16:40Z</time>
      </trkpt>
      <trkpt lat="47.15849" lon="5.91868">
        <ele>284</ele>
        <time>2022-06-18T15:16:44Z</time>
      </trkpt>
      <trkpt lat="47.15819" lon="5.91854">
        <ele>283</ele>
        <time>2022-06-18T15:16:52Z</time>
      </trkpt>
      <trkpt lat="47.15803" lon="5.91855">
        <ele>284</ele>
        <time>2022-06-18T15:16:55Z</time>
      </trkpt>
      <trkpt lat="47.15718" lon="5.91773">
        <ele>288</ele>
        <time>2022-06-18T15:17:19Z</time>
      </trkpt>
      <trkpt lat="47.15697" lon="5.91758">
        <ele>289</ele>
        <time>2022-06-18T15:17:24Z</time>
      </trkpt>
      <trkpt lat="47.15643" lon="5.91762">
        <ele>294</ele>
        <time>2022-06-18T15:17:37Z</time>
      </trkpt>
      <trkpt lat="47.15606" lon="5.91775">
        <ele>300</ele>
        <time>2022-06-18T15:17:46Z</time>
      </trkpt>
      <trkpt lat="47.15552" lon="5.91806">
        <ele>307</ele>
        <time>2022-06-18T15:18:00Z</time>
      </trkpt>
      <trkpt lat="47.15511" lon="5.91824">
        <ele>308</ele>
        <time>2022-06-18T15:18:09Z</time>
      </trkpt>
      <trkpt lat="47.15497" lon="5.91837">
        <ele>308</ele>
        <time>2022-06-18T15:18:13Z</time>
      </trkpt>
      <trkpt lat="47.15461" lon="5.91856">
        <ele>315</ele>
        <time>2022-06-18T15:18:22Z</time>
      </trkpt>
      <trkpt lat="47.15442" lon="5.91885">
        <ele>315</ele>
        <time>2022-06-18T15:18:29Z</time>
      </trkpt>
      <trkpt lat="47.15421" lon="5.91907">
        <ele>312</ele>
        <time>2022-06-18T15:18:35Z</time>
      </trkpt>
      <trkpt lat="47.15368" lon="5.92007">
        <ele>321</ele>
        <time>2022-06-18T15:18:55Z</time>
      </trkpt>
      <trkpt lat="47.15351" lon="5.92068">
        <ele>320</ele>
        <time>2022-06-18T15:19:05Z</time>
      </trkpt>
      <trkpt lat="47.15348" lon="5.9213">
        <ele>319</ele>
        <time>2022-06-18T15:19:15Z</time>
      </trkpt>
      <trkpt lat="47.15349" lon="5.92125">
        <ele>319</ele>
        <time>2022-06-18T15:19:16Z</time>
      </trkpt>
      <trkpt lat="47.15345" lon="5.92127">
        <ele>318</ele>
        <time>2022-06-18T15:19:17Z</time>
      </trkpt>
      <trkpt lat="47.15335" lon="5.92162">
        <ele>315</ele>
        <time>2022-06-18T15:19:23Z</time>
      </trkpt>
      <trkpt lat="47.15334" lon="5.9218">
        <ele>315</ele>
        <time>2022-06-18T15:19:26Z</time>
      </trkpt>
      <trkpt lat="47.15277" lon="5.92286">
        <ele>313</ele>
        <time>2022-06-18T15:19:47Z</time>
      </trkpt>
      <trkpt lat="47.15233" lon="5.92333">
        <ele>306</ele>
        <time>2022-06-18T15:20:00Z</time>
      </trkpt>
      <trkpt lat="47.15153" lon="5.92378">
        <ele>309</ele>
        <time>2022-06-18T15:20:20Z</time>
      </trkpt>
      <trkpt lat="47.15118" lon="5.92387">
        <ele>310</ele>
        <time>2022-06-18T15:20:28Z</time>
      </trkpt>
      <trkpt lat="47.15069" lon="5.92378">
        <ele>311</ele>
        <time>2022-06-18T15:20:40Z</time>
      </trkpt>
      <trkpt lat="47.15053" lon="5.92385">
        <ele>312</ele>
        <time>2022-06-18T15:20:44Z</time>
      </trkpt>
      <trkpt lat="47.15037" lon="5.92359">
        <ele>312</ele>
        <time>2022-06-18T15:20:49Z</time>
      </trkpt>
      <trkpt lat="47.14967" lon="5.923">
        <ele>320</ele>
        <time>2022-06-18T15:21:08Z</time>
      </trkpt>
      <trkpt lat="47.14903" lon="5.92286">
        <ele>333</ele>
        <time>2022-06-18T15:21:23Z</time>
      </trkpt>
      <trkpt lat="47.14832" lon="5.92257">
        <ele>344</ele>
        <time>2022-06-18T15:21:41Z</time>
      </trkpt>
      <trkpt lat="47.14723" lon="5.92231">
        <ele>354</ele>
        <time>2022-06-18T15:22:06Z</time>
      </trkpt>
      <trkpt lat="47.14659" lon="5.92228">
        <ele>362</ele>
        <time>2022-06-18T15:22:21Z</time>
      </trkpt>
      <trkpt lat="47.14634" lon="5.92213">
        <ele>364</ele>
        <time>2022-06-18T15:22:28Z</time>
      </trkpt>
      <trkpt lat="47.14571" lon="5.9216">
        <ele>371</ele>
        <time>2022-06-18T15:22:45Z</time>
      </trkpt>
      <trkpt lat="47.1451" lon="5.92101">
        <ele>379</ele>
        <time>2022-06-18T15:23:02Z</time>
      </trkpt>
      <trkpt lat="47.14433" lon="5.92038">
        <ele>385</ele>
        <time>2022-06-18T15:23:22Z</time>
      </trkpt>
      <trkpt lat="47.14391" lon="5.91991">
        <ele>391</ele>
        <time>2022-06-18T15:23:34Z</time>
      </trkpt>
      <trkpt lat="47.14324" lon="5.91905">
        <ele>400</ele>
        <time>2022-06-18T15:23:55Z</time>
      </trkpt>
      <trkpt lat="47.14281" lon="5.9186">
        <ele>406</ele>
        <time>2022-06-18T15:24:08Z</time>
      </trkpt>
      <trkpt lat="47.1425" lon="5.91839">
        <ele>410</ele>
        <time>2022-06-18T15:24:16Z</time>
      </trkpt>
      <trkpt lat="47.14232" lon="5.91818">
        <ele>413</ele>
        <time>2022-06-18T15:24:21Z</time>
      </trkpt>
      <trkpt lat="47.14217" lon="5.9179">
        <ele>417</ele>
        <time>2022-06-18T15:24:27Z</time>
      </trkpt>
      <trkpt lat="47.14177" lon="5.91736">
        <ele>423</ele>
        <time>2022-06-18T15:24:39Z</time>
      </trkpt>
      <trkpt lat="47.1406" lon="5.91593">
        <ele>432</ele>
        <time>2022-06-18T15:25:15Z</time>
      </trkpt>
      <trkpt lat="47.13957" lon="5.91491">
        <ele>440</ele>
        <time>2022-06-18T15:25:44Z</time>
      </trkpt>
      <trkpt lat="47.13905" lon="5.91419">
        <ele>448</ele>
        <time>2022-06-18T15:26:00Z</time>
      </trkpt>
      <trkpt lat="47.13838" lon="5.9135">
        <ele>450</ele>
        <time>2022-06-18T15:26:20Z</time>
      </trkpt>
      <trkpt lat="47.13853" lon="5.91337">
        <ele>452</ele>
        <time>2022-06-18T15:26:24Z</time>
      </trkpt>
      <trkpt lat="47.13871" lon="5.91313">
        <ele>454</ele>
        <time>2022-06-18T15:26:29Z</time>
      </trkpt>
      <trkpt lat="47.13891" lon="5.91336">
        <ele>456</ele>
        <time>2022-06-18T15:26:35Z</time>
      </trkpt>
      <trkpt lat="47.13914" lon="5.91346">
        <ele>456</ele>
        <time>2022-06-18T15:26:41Z</time>
      </trkpt>
      <trkpt lat="47.13924" lon="5.91361">
        <ele>454</ele>
        <time>2022-06-18T15:26:44Z</time>
      </trkpt>
      <trkpt lat="47.13938" lon="5.91372">
        <ele>452</ele>
        <time>2022-06-18T15:26:48Z</time>
      </trkpt>
      <trkpt lat="47.13973" lon="5.91389">
        <ele>449</ele>
        <time>2022-06-18T15:26:56Z</time>
      </trkpt>
      <trkpt lat="47.13992" lon="5.91413">
        <ele>447</ele>
        <time>2022-06-18T15:27:02Z</time>
      </trkpt>
      <trkpt lat="47.14023" lon="5.91432">
        <ele>444</ele>
        <time>2022-06-18T15:27:10Z</time>
      </trkpt>
      <trkpt lat="47.14061" lon="5.91443">
        <ele>442</ele>
        <time>2022-06-18T15:27:19Z</time>
      </trkpt>
      <trkpt lat="47.14098" lon="5.91481">
        <ele>441</ele>
        <time>2022-06-18T15:27:30Z</time>
      </trkpt>
      <trkpt lat="47.14136" lon="5.9151">
        <ele>439</ele>
        <time>2022-06-18T15:27:40Z</time>
      </trkpt>
      <trkpt lat="47.14148" lon="5.91516">
        <ele>438</ele>
        <time>2022-06-18T15:27:43Z</time>
      </trkpt>
      <trkpt lat="47.14195" lon="5.91524">
        <ele>435</ele>
        <time>2022-06-18T15:27:54Z</time>
      </trkpt>
      <trkpt lat="47.14208" lon="5.91531">
        <ele>434</ele>
        <time>2022-06-18T15:27:57Z</time>
      </trkpt>
      <trkpt lat="47.14225" lon="5.91534">
        <ele>433</ele>
        <time>2022-06-18T15:28:01Z</time>
      </trkpt>
      <trkpt lat="47.1425" lon="5.91556">
        <ele>433</ele>
        <time>2022-06-18T15:28:08Z</time>
      </trkpt>
      <trkpt lat="47.14269" lon="5.91581">
        <ele>436</ele>
        <time>2022-06-18T15:28:14Z</time>
      </trkpt>
      <trkpt lat="47.14331" lon="5.91645">
        <ele>440</ele>
        <time>2022-06-18T15:28:31Z</time>
      </trkpt>
      <trkpt lat="47.14358" lon="5.91663">
        <ele>441</ele>
        <time>2022-06-18T15:28:38Z</time>
      </trkpt>
      <trkpt lat="47.14391" lon="5.91679">
        <ele>440</ele>
        <time>2022-06-18T15:28:46Z</time>
      </trkpt>
      <trkpt lat="47.14456" lon="5.917">
        <ele>435</ele>
        <time>2022-06-18T15:29:02Z</time>
      </trkpt>
      <trkpt lat="47.14481" lon="5.91702">
        <ele>434</ele>
        <time>2022-06-18T15:29:08Z</time>
      </trkpt>
      <trkpt lat="47.14524" lon="5.91725">
        <ele>432</ele>
        <time>2022-06-18T15:29:19Z</time>
      </trkpt>
      <trkpt lat="47.14537" lon="5.91725">
        <ele>432</ele>
        <time>2022-06-18T15:29:22Z</time>
      </trkpt>
      <trkpt lat="47.14554" lon="5.91734">
        <ele>432</ele>
        <time>2022-06-18T15:29:26Z</time>
      </trkpt>
      <trkpt lat="47.14575" lon="5.91731">
        <ele>432</ele>
        <time>2022-06-18T15:29:31Z</time>
      </trkpt>
      <trkpt lat="47.14613" lon="5.91748">
        <ele>431</ele>
        <time>2022-06-18T15:29:40Z</time>
      </trkpt>
      <trkpt lat="47.14624" lon="5.91749">
        <ele>430</ele>
        <time>2022-06-18T15:29:43Z</time>
      </trkpt>
      <trkpt lat="47.14651" lon="5.91747">
        <ele>429</ele>
        <time>2022-06-18T15:29:49Z</time>
      </trkpt>
      <trkpt lat="47.1466" lon="5.91741">
        <ele>428</ele>
        <time>2022-06-18T15:29:51Z</time>
      </trkpt>
      <trkpt lat="47.1467" lon="5.91757">
        <ele>426</ele>
        <time>2022-06-18T15:29:55Z</time>
      </trkpt>
      <trkpt lat="47.1468" lon="5.91761">
        <ele>424</ele>
        <time>2022-06-18T15:29:57Z</time>
      </trkpt>
      <trkpt lat="47.14693" lon="5.91757">
        <ele>424</ele>
        <time>2022-06-18T15:30:00Z</time>
      </trkpt>
      <trkpt lat="47.14714" lon="5.91762">
        <ele>421</ele>
        <time>2022-06-18T15:30:05Z</time>
      </trkpt>
      <trkpt lat="47.14755" lon="5.9175">
        <ele>420</ele>
        <time>2022-06-18T15:30:15Z</time>
      </trkpt>
      <trkpt lat="47.14809" lon="5.91758">
        <ele>412</ele>
        <time>2022-06-18T15:30:28Z</time>
      </trkpt>
      <trkpt lat="47.14825" lon="5.91757">
        <ele>411</ele>
        <time>2022-06-18T15:30:31Z</time>
      </trkpt>
      <trkpt lat="47.14856" lon="5.9177">
        <ele>405</ele>
        <time>2022-06-18T15:30:39Z</time>
      </trkpt>
      <trkpt lat="47.14907" lon="5.91774">
        <ele>400</ele>
        <time>2022-06-18T15:30:51Z</time>
      </trkpt>
      <trkpt lat="47.14934" lon="5.91786">
        <ele>395</ele>
        <time>2022-06-18T15:30:57Z</time>
      </trkpt>
      <trkpt lat="47.14945" lon="5.91785">
        <ele>395</ele>
        <time>2022-06-18T15:31:00Z</time>
      </trkpt>
      <trkpt lat="47.14969" lon="5.91769">
        <ele>395</ele>
        <time>2022-06-18T15:31:06Z</time>
      </trkpt>
      <trkpt lat="47.15021" lon="5.91791">
        <ele>389</ele>
        <time>2022-06-18T15:31:19Z</time>
      </trkpt>
      <trkpt lat="47.1514" lon="5.91811">
        <ele>381</ele>
        <time>2022-06-18T15:31:47Z</time>
      </trkpt>
      <trkpt lat="47.15159" lon="5.91807">
        <ele>379</ele>
        <time>2022-06-18T15:31:51Z</time>
      </trkpt>
      <trkpt lat="47.15185" lon="5.91794">
        <ele>373</ele>
        <time>2022-06-18T15:31:58Z</time>
      </trkpt>
      <trkpt lat="47.15226" lon="5.91795">
        <ele>367</ele>
        <time>2022-06-18T15:32:07Z</time>
      </trkpt>
      <trkpt lat="47.15275" lon="5.91757">
        <ele>354</ele>
        <time>2022-06-18T15:32:20Z</time>
      </trkpt>
      <trkpt lat="47.15316" lon="5.91737">
        <ele>347</ele>
        <time>2022-06-18T15:32:30Z</time>
      </trkpt>
      <trkpt lat="47.15351" lon="5.91734">
        <ele>343</ele>
        <time>2022-06-18T15:32:38Z</time>
      </trkpt>
      <trkpt lat="47.1538" lon="5.91742">
        <ele>340</ele>
        <time>2022-06-18T15:32:45Z</time>
      </trkpt>
      <trkpt lat="47.15394" lon="5.91739">
        <ele>338</ele>
        <time>2022-06-18T15:32:49Z</time>
      </trkpt>
      <trkpt lat="47.15436" lon="5.91712">
        <ele>329</ele>
        <time>2022-06-18T15:32:59Z</time>
      </trkpt>
      <trkpt lat="47.15453" lon="5.91694">
        <ele>326</ele>
        <time>2022-06-18T15:33:04Z</time>
      </trkpt>
      <trkpt lat="47.15457" lon="5.91674">
        <ele>324</ele>
        <time>2022-06-18T15:33:08Z</time>
      </trkpt>
      <trkpt lat="47.15439" lon="5.91635">
        <ele>324</ele>
        <time>2022-06-18T15:33:15Z</time>
      </trkpt>
      <trkpt lat="47.15445" lon="5.91623">
        <ele>322</ele>
        <time>2022-06-18T15:33:17Z</time>
      </trkpt>
      <trkpt lat="47.15522" lon="5.91562">
        <ele>315</ele>
        <time>2022-06-18T15:33:38Z</time>
      </trkpt>
      <trkpt lat="47.15537" lon="5.91554">
        <ele>315</ele>
        <time>2022-06-18T15:33:42Z</time>
      </trkpt>
      <trkpt lat="47.15535" lon="5.91495">
        <ele>313</ele>
        <time>2022-06-18T15:33:51Z</time>
      </trkpt>
      <trkpt lat="47.1554" lon="5.91411">
        <ele>312</ele>
        <time>2022-06-18T15:34:04Z</time>
      </trkpt>
      <trkpt lat="47.1555" lon="5.91335">
        <ele>312</ele>
        <time>2022-06-18T15:34:17Z</time>
      </trkpt>
      <trkpt lat="47.15595" lon="5.91161">
        <ele>304</ele>
        <time>2022-06-18T15:34:46Z</time>
      </trkpt>
      <trkpt lat="47.15616" lon="5.90961">
        <ele>291</ele>
        <time>2022-06-18T15:35:18Z</time>
      </trkpt>
      <trkpt lat="47.15644" lon="5.9084">
        <ele>285</ele>
        <time>2022-06-18T15:35:39Z</time>
      </trkpt>
      <trkpt lat="47.15656" lon="5.90806">
        <ele>284</ele>
        <time>2022-06-18T15:35:45Z</time>
      </trkpt>
      <trkpt lat="47.15744" lon="5.9072">
        <ele>284</ele>
        <time>2022-06-18T15:36:09Z</time>
      </trkpt>
      <trkpt lat="47.15804" lon="5.90695">
        <ele>286</ele>
        <time>2022-06-18T15:36:24Z</time>
      </trkpt>
      <trkpt lat="47.15923" lon="5.90684">
        <ele>296</ele>
        <time>2022-06-18T15:36:52Z</time>
      </trkpt>
      <trkpt lat="47.15969" lon="5.90696">
        <ele>300</ele>
        <time>2022-06-18T15:37:03Z</time>
      </trkpt>
      <trkpt lat="47.16003" lon="5.9067">
        <ele>301</ele>
        <time>2022-06-18T15:37:12Z</time>
      </trkpt>
      <trkpt lat="47.1601" lon="5.90672">
        <ele>302</ele>
        <time>2022-06-18T15:37:13Z</time>
      </trkpt>
      <trkpt lat="47.16031" lon="5.90691">
        <ele>306</ele>
        <time>2022-06-18T15:37:19Z</time>
      </trkpt>
      <trkpt lat="47.16041" lon="5.90712">
        <ele>308</ele>
        <time>2022-06-18T15:37:23Z</time>
      </trkpt>
      <trkpt lat="47.16068" lon="5.90743">
        <ele>314</ele>
        <time>2022-06-18T15:37:31Z</time>
      </trkpt>
      <trkpt lat="47.16077" lon="5.90759">
        <ele>317</ele>
        <time>2022-06-18T15:37:34Z</time>
      </trkpt>
      <trkpt lat="47.16099" lon="5.90738">
        <ele>317</ele>
        <time>2022-06-18T15:37:41Z</time>
      </trkpt>
      <trkpt lat="47.16127" lon="5.90719">
        <ele>317</ele>
        <time>2022-06-18T15:37:48Z</time>
      </trkpt>
      <trkpt lat="47.1615" lon="5.9072">
        <ele>318</ele>
        <time>2022-06-18T15:37:53Z</time>
      </trkpt>
      <trkpt lat="47.16214" lon="5.90738">
        <ele>323</ele>
        <time>2022-06-18T15:38:08Z</time>
      </trkpt>
      <trkpt lat="47.16255" lon="5.90729">
        <ele>322</ele>
        <time>2022-06-18T15:38:18Z</time>
      </trkpt>
      <trkpt lat="47.16385" lon="5.90724">
        <ele>320</ele>
        <time>2022-06-18T15:38:48Z</time>
      </trkpt>
      <trkpt lat="47.16395" lon="5.90717">
        <ele>319</ele>
        <time>2022-06-18T15:38:51Z</time>
      </trkpt>
      <trkpt lat="47.16433" lon="5.90671">
        <ele>317</ele>
        <time>2022-06-18T15:39:02Z</time>
      </trkpt>
      <trkpt lat="47.16449" lon="5.9066">
        <ele>316</ele>
        <time>2022-06-18T15:39:07Z</time>
      </trkpt>
      <trkpt lat="47.16511" lon="5.90646">
        <ele>315</ele>
        <time>2022-06-18T15:39:21Z</time>
      </trkpt>
      <trkpt lat="47.16518" lon="5.90577">
        <ele>308</ele>
        <time>2022-06-18T15:39:32Z</time>
      </trkpt>
      <trkpt lat="47.16517" lon="5.90548">
        <ele>305</ele>
        <time>2022-06-18T15:39:37Z</time>
      </trkpt>
      <trkpt lat="47.16496" lon="5.9044">
        <ele>297</ele>
        <time>2022-06-18T15:39:55Z</time>
      </trkpt>
      <trkpt lat="47.16385" lon="5.90324">
        <ele>300</ele>
        <time>2022-06-18T15:40:27Z</time>
      </trkpt>
      <trkpt lat="47.1637" lon="5.90311">
        <ele>299</ele>
        <time>2022-06-18T15:40:31Z</time>
      </trkpt>
      <trkpt lat="47.16364" lon="5.90314">
        <ele>299</ele>
        <time>2022-06-18T15:40:32Z</time>
      </trkpt>
    </trkseg>
  </trk>
</gpx>